<?xml version="1.0" encoding="UTF-8" standalone="no" ?>
<gpx xmlns="http://www.topografix.com/GPX/1/1" xmlns:xsi="http://www.w3.org/2001/XMLSchema-instance" xsi:schemaLocation="http://www.topografix.com/GPX/1/1 http://www.topografix.com/GPX/1/1/gpx.xsd" version="1.1" creator="VisuGPX - https://www.visugpx.com">
  <metadata>
    <name>Estany de la Nou i les valls de Claror i Perafita</name>
  </metadata>
  <trk>
    <name><![CDATA[Estany de la Nou i les valls de Claror i Perafita]]></name>
    <extensions>
      <line xmlns="http://www.topografix.com/GPX/gpx_style/0/2">
        <color>ff0000</color>
        <opacity>1.0</opacity>
        <width>2.0</width>
      </line>
    </extensions>
    <trkseg>
      <trkpt lat="42.50423" lon="1.55098">
        <ele>1234</ele>
      </trkpt>
      <trkpt lat="42.50419" lon="1.55107">
        <ele>1235</ele>
        <time>2016-10-28T07:57:44Z</time>
      </trkpt>
      <trkpt lat="42.50415" lon="1.55114">
        <ele>1236</ele>
        <time>2016-10-28T07:58:17Z</time>
      </trkpt>
      <trkpt lat="42.50409" lon="1.55123">
        <ele>1238</ele>
        <time>2016-10-28T07:58:30Z</time>
      </trkpt>
      <trkpt lat="42.50398" lon="1.55134">
        <ele>1240</ele>
        <time>2016-10-28T07:58:43Z</time>
      </trkpt>
      <trkpt lat="42.50386" lon="1.55138">
        <ele>1243</ele>
        <time>2016-10-28T07:58:56Z</time>
      </trkpt>
      <trkpt lat="42.50378" lon="1.55146">
        <ele>1246</ele>
        <time>2016-10-28T07:59:11Z</time>
      </trkpt>
      <trkpt lat="42.50368" lon="1.55153">
        <ele>1248</ele>
        <time>2016-10-28T07:59:26Z</time>
      </trkpt>
      <trkpt lat="42.50358" lon="1.55158">
        <ele>1250</ele>
        <time>2016-10-28T07:59:40Z</time>
      </trkpt>
      <trkpt lat="42.50347" lon="1.55159">
        <ele>1252</ele>
        <time>2016-10-28T07:59:54Z</time>
      </trkpt>
      <trkpt lat="42.50334" lon="1.55162">
        <ele>1255</ele>
        <time>2016-10-28T08:00:10Z</time>
      </trkpt>
      <trkpt lat="42.50326" lon="1.55162">
        <ele>1259</ele>
        <time>2016-10-28T08:00:26Z</time>
      </trkpt>
      <trkpt lat="42.50322" lon="1.55161">
        <ele>1261</ele>
        <time>2016-10-28T08:00:42Z</time>
      </trkpt>
      <trkpt lat="42.50317" lon="1.55165">
        <ele>1263</ele>
        <time>2016-10-28T08:01:01Z</time>
      </trkpt>
      <trkpt lat="42.5031" lon="1.55165">
        <ele>1268</ele>
        <time>2016-10-28T08:02:30Z</time>
      </trkpt>
      <trkpt lat="42.50301" lon="1.55165">
        <ele>1272</ele>
        <time>2016-10-28T08:03:09Z</time>
      </trkpt>
      <trkpt lat="42.50289" lon="1.55175">
        <ele>1274</ele>
        <time>2016-10-28T08:03:23Z</time>
      </trkpt>
      <trkpt lat="42.50285" lon="1.55186">
        <ele>1277</ele>
        <time>2016-10-28T08:03:40Z</time>
      </trkpt>
      <trkpt lat="42.50284" lon="1.55198">
        <ele>1278</ele>
        <time>2016-10-28T08:03:51Z</time>
      </trkpt>
      <trkpt lat="42.50276" lon="1.55211">
        <ele>1279</ele>
        <time>2016-10-28T08:04:04Z</time>
      </trkpt>
      <trkpt lat="42.50265" lon="1.55221">
        <ele>1282</ele>
        <time>2016-10-28T08:04:19Z</time>
      </trkpt>
      <trkpt lat="42.50257" lon="1.55231">
        <ele>1285</ele>
        <time>2016-10-28T08:04:39Z</time>
      </trkpt>
      <trkpt lat="42.50243" lon="1.5524">
        <ele>1287</ele>
        <time>2016-10-28T08:04:54Z</time>
      </trkpt>
      <trkpt lat="42.50238" lon="1.55249">
        <ele>1289</ele>
        <time>2016-10-28T08:05:08Z</time>
      </trkpt>
      <trkpt lat="42.50225" lon="1.55258">
        <ele>1289</ele>
        <time>2016-10-28T08:05:21Z</time>
      </trkpt>
      <trkpt lat="42.50214" lon="1.55266">
        <ele>1290</ele>
        <time>2016-10-28T08:05:33Z</time>
      </trkpt>
      <trkpt lat="42.50202" lon="1.55274">
        <ele>1292</ele>
        <time>2016-10-28T08:05:50Z</time>
      </trkpt>
      <trkpt lat="42.50194" lon="1.55281">
        <ele>1294</ele>
        <time>2016-10-28T08:06:02Z</time>
      </trkpt>
      <trkpt lat="42.50184" lon="1.55288">
        <ele>1296</ele>
        <time>2016-10-28T08:06:15Z</time>
      </trkpt>
      <trkpt lat="42.50174" lon="1.55293">
        <ele>1297</ele>
        <time>2016-10-28T08:06:26Z</time>
      </trkpt>
      <trkpt lat="42.50163" lon="1.55298">
        <ele>1299</ele>
        <time>2016-10-28T08:06:38Z</time>
      </trkpt>
      <trkpt lat="42.50154" lon="1.55303">
        <ele>1301</ele>
        <time>2016-10-28T08:06:50Z</time>
      </trkpt>
      <trkpt lat="42.50147" lon="1.55306">
        <ele>1302</ele>
        <time>2016-10-28T08:07:26Z</time>
      </trkpt>
      <trkpt lat="42.50141" lon="1.55312">
        <ele>1307</ele>
        <time>2016-10-28T08:11:36Z</time>
      </trkpt>
      <trkpt lat="42.50133" lon="1.55317">
        <ele>1310</ele>
        <time>2016-10-28T08:11:53Z</time>
      </trkpt>
      <trkpt lat="42.50122" lon="1.55321">
        <ele>1313</ele>
        <time>2016-10-28T08:12:09Z</time>
      </trkpt>
      <trkpt lat="42.50114" lon="1.55329">
        <ele>1318</ele>
        <time>2016-10-28T08:12:29Z</time>
      </trkpt>
      <trkpt lat="42.50103" lon="1.55336">
        <ele>1322</ele>
        <time>2016-10-28T08:12:48Z</time>
      </trkpt>
      <trkpt lat="42.50091" lon="1.55341">
        <ele>1325</ele>
        <time>2016-10-28T08:13:06Z</time>
      </trkpt>
      <trkpt lat="42.5008" lon="1.55343">
        <ele>1328</ele>
        <time>2016-10-28T08:13:21Z</time>
      </trkpt>
      <trkpt lat="42.50073" lon="1.5535">
        <ele>1331</ele>
        <time>2016-10-28T08:13:36Z</time>
      </trkpt>
      <trkpt lat="42.50065" lon="1.55356">
        <ele>1333</ele>
        <time>2016-10-28T08:13:49Z</time>
      </trkpt>
      <trkpt lat="42.50054" lon="1.55364">
        <ele>1336</ele>
        <time>2016-10-28T08:14:07Z</time>
      </trkpt>
      <trkpt lat="42.50043" lon="1.55368">
        <ele>1338</ele>
        <time>2016-10-28T08:14:20Z</time>
      </trkpt>
      <trkpt lat="42.50035" lon="1.55373">
        <ele>1340</ele>
        <time>2016-10-28T08:14:33Z</time>
      </trkpt>
      <trkpt lat="42.50026" lon="1.55379">
        <ele>1342</ele>
        <time>2016-10-28T08:14:45Z</time>
      </trkpt>
      <trkpt lat="42.50018" lon="1.55385">
        <ele>1344</ele>
        <time>2016-10-28T08:15:00Z</time>
      </trkpt>
      <trkpt lat="42.50011" lon="1.55396">
        <ele>1346</ele>
        <time>2016-10-28T08:15:16Z</time>
      </trkpt>
      <trkpt lat="42.50001" lon="1.55406">
        <ele>1348</ele>
        <time>2016-10-28T08:15:29Z</time>
      </trkpt>
      <trkpt lat="42.49992" lon="1.55413">
        <ele>1350</ele>
        <time>2016-10-28T08:15:42Z</time>
      </trkpt>
      <trkpt lat="42.49983" lon="1.55419">
        <ele>1352</ele>
        <time>2016-10-28T08:15:55Z</time>
      </trkpt>
      <trkpt lat="42.49973" lon="1.55424">
        <ele>1354</ele>
        <time>2016-10-28T08:16:09Z</time>
      </trkpt>
      <trkpt lat="42.49963" lon="1.55428">
        <ele>1355</ele>
        <time>2016-10-28T08:16:22Z</time>
      </trkpt>
      <trkpt lat="42.49952" lon="1.55431">
        <ele>1356</ele>
        <time>2016-10-28T08:16:52Z</time>
      </trkpt>
      <trkpt lat="42.49942" lon="1.55439">
        <ele>1359</ele>
        <time>2016-10-28T08:17:04Z</time>
      </trkpt>
      <trkpt lat="42.49933" lon="1.55446">
        <ele>1360</ele>
        <time>2016-10-28T08:17:16Z</time>
      </trkpt>
      <trkpt lat="42.49924" lon="1.55454">
        <ele>1361</ele>
        <time>2016-10-28T08:17:28Z</time>
      </trkpt>
      <trkpt lat="42.49918" lon="1.55466">
        <ele>1363</ele>
        <time>2016-10-28T08:17:44Z</time>
      </trkpt>
      <trkpt lat="42.49911" lon="1.55474">
        <ele>1365</ele>
        <time>2016-10-28T08:17:58Z</time>
      </trkpt>
      <trkpt lat="42.49905" lon="1.55484">
        <ele>1367</ele>
        <time>2016-10-28T08:18:32Z</time>
      </trkpt>
      <trkpt lat="42.49899" lon="1.55493">
        <ele>1371</ele>
        <time>2016-10-28T08:18:48Z</time>
      </trkpt>
      <trkpt lat="42.49893" lon="1.55497">
        <ele>1374</ele>
        <time>2016-10-28T08:19:06Z</time>
      </trkpt>
      <trkpt lat="42.49889" lon="1.5551">
        <ele>1379</ele>
        <time>2016-10-28T08:19:30Z</time>
      </trkpt>
      <trkpt lat="42.49882" lon="1.55524">
        <ele>1380</ele>
        <time>2016-10-28T08:19:45Z</time>
      </trkpt>
      <trkpt lat="42.49876" lon="1.55536">
        <ele>1383</ele>
        <time>2016-10-28T08:20:02Z</time>
      </trkpt>
      <trkpt lat="42.49867" lon="1.55543">
        <ele>1386</ele>
        <time>2016-10-28T08:20:18Z</time>
      </trkpt>
      <trkpt lat="42.49857" lon="1.55554">
        <ele>1389</ele>
        <time>2016-10-28T08:20:59Z</time>
      </trkpt>
      <trkpt lat="42.49852" lon="1.55562">
        <ele>1392</ele>
        <time>2016-10-28T08:21:17Z</time>
      </trkpt>
      <trkpt lat="42.4985" lon="1.55573">
        <ele>1395</ele>
        <time>2016-10-28T08:21:32Z</time>
      </trkpt>
      <trkpt lat="42.49843" lon="1.55583">
        <ele>1398</ele>
        <time>2016-10-28T08:21:50Z</time>
      </trkpt>
      <trkpt lat="42.49838" lon="1.55595">
        <ele>1402</ele>
        <time>2016-10-28T08:22:06Z</time>
      </trkpt>
      <trkpt lat="42.4983" lon="1.55608">
        <ele>1406</ele>
        <time>2016-10-28T08:22:29Z</time>
      </trkpt>
      <trkpt lat="42.49826" lon="1.55622">
        <ele>1409</ele>
        <time>2016-10-28T08:22:47Z</time>
      </trkpt>
      <trkpt lat="42.49812" lon="1.55628">
        <ele>1412</ele>
        <time>2016-10-28T08:23:04Z</time>
      </trkpt>
      <trkpt lat="42.49803" lon="1.55635">
        <ele>1414</ele>
        <time>2016-10-28T08:23:23Z</time>
      </trkpt>
      <trkpt lat="42.49792" lon="1.55636">
        <ele>1415</ele>
        <time>2016-10-28T08:23:44Z</time>
      </trkpt>
      <trkpt lat="42.49787" lon="1.55643">
        <ele>1420</ele>
        <time>2016-10-28T08:24:10Z</time>
      </trkpt>
      <trkpt lat="42.49787" lon="1.55659">
        <ele>1424</ele>
        <time>2016-10-28T08:24:37Z</time>
      </trkpt>
      <trkpt lat="42.49775" lon="1.55671">
        <ele>1428</ele>
        <time>2016-10-28T08:25:00Z</time>
      </trkpt>
      <trkpt lat="42.49762" lon="1.55672">
        <ele>1432</ele>
        <time>2016-10-28T08:25:23Z</time>
      </trkpt>
      <trkpt lat="42.49755" lon="1.55677">
        <ele>1435</ele>
        <time>2016-10-28T08:26:44Z</time>
      </trkpt>
      <trkpt lat="42.49748" lon="1.55689">
        <ele>1437</ele>
        <time>2016-10-28T08:26:59Z</time>
      </trkpt>
      <trkpt lat="42.4974" lon="1.55696">
        <ele>1439</ele>
        <time>2016-10-28T08:27:22Z</time>
      </trkpt>
      <trkpt lat="42.49738" lon="1.5571">
        <ele>1440</ele>
        <time>2016-10-28T08:27:36Z</time>
      </trkpt>
      <trkpt lat="42.49737" lon="1.55731">
        <ele>1443</ele>
        <time>2016-10-28T08:27:54Z</time>
      </trkpt>
      <trkpt lat="42.49727" lon="1.55747">
        <ele>1446</ele>
        <time>2016-10-28T08:28:13Z</time>
      </trkpt>
      <trkpt lat="42.49721" lon="1.55759">
        <ele>1448</ele>
        <time>2016-10-28T08:28:32Z</time>
      </trkpt>
      <trkpt lat="42.49715" lon="1.55773">
        <ele>1449</ele>
        <time>2016-10-28T08:28:46Z</time>
      </trkpt>
      <trkpt lat="42.49708" lon="1.55791">
        <ele>1450</ele>
        <time>2016-10-28T08:29:03Z</time>
      </trkpt>
      <trkpt lat="42.49694" lon="1.55793">
        <ele>1455</ele>
        <time>2016-10-28T08:29:27Z</time>
      </trkpt>
      <trkpt lat="42.49682" lon="1.55795">
        <ele>1460</ele>
        <time>2016-10-28T08:29:50Z</time>
      </trkpt>
      <trkpt lat="42.49678" lon="1.55804">
        <ele>1464</ele>
        <time>2016-10-28T08:30:11Z</time>
      </trkpt>
      <trkpt lat="42.49671" lon="1.55815">
        <ele>1465</ele>
        <time>2016-10-28T08:30:26Z</time>
      </trkpt>
      <trkpt lat="42.49665" lon="1.55826">
        <ele>1470</ele>
        <time>2016-10-28T08:30:49Z</time>
      </trkpt>
      <trkpt lat="42.49656" lon="1.55837">
        <ele>1473</ele>
        <time>2016-10-28T08:31:08Z</time>
      </trkpt>
      <trkpt lat="42.49651" lon="1.55847">
        <ele>1476</ele>
        <time>2016-10-28T08:31:25Z</time>
      </trkpt>
      <trkpt lat="42.49639" lon="1.55857">
        <ele>1478</ele>
        <time>2016-10-28T08:31:41Z</time>
      </trkpt>
      <trkpt lat="42.49632" lon="1.55866">
        <ele>1481</ele>
        <time>2016-10-28T08:31:58Z</time>
      </trkpt>
      <trkpt lat="42.49625" lon="1.55877">
        <ele>1484</ele>
        <time>2016-10-28T08:32:18Z</time>
      </trkpt>
      <trkpt lat="42.49614" lon="1.55888">
        <ele>1487</ele>
        <time>2016-10-28T08:32:39Z</time>
      </trkpt>
      <trkpt lat="42.49605" lon="1.55897">
        <ele>1492</ele>
        <time>2016-10-28T08:33:01Z</time>
      </trkpt>
      <trkpt lat="42.49593" lon="1.55902">
        <ele>1495</ele>
        <time>2016-10-28T08:33:21Z</time>
      </trkpt>
      <trkpt lat="42.49584" lon="1.55904">
        <ele>1499</ele>
        <time>2016-10-28T08:33:52Z</time>
      </trkpt>
      <trkpt lat="42.49572" lon="1.55907">
        <ele>1503</ele>
        <time>2016-10-28T08:34:15Z</time>
      </trkpt>
      <trkpt lat="42.49565" lon="1.55914">
        <ele>1505</ele>
        <time>2016-10-28T08:34:32Z</time>
      </trkpt>
      <trkpt lat="42.49555" lon="1.55924">
        <ele>1508</ele>
        <time>2016-10-28T08:34:56Z</time>
      </trkpt>
      <trkpt lat="42.49547" lon="1.5593">
        <ele>1510</ele>
        <time>2016-10-28T08:35:10Z</time>
      </trkpt>
      <trkpt lat="42.4954" lon="1.5594">
        <ele>1512</ele>
        <time>2016-10-28T08:35:38Z</time>
      </trkpt>
      <trkpt lat="42.49527" lon="1.5595">
        <ele>1516</ele>
        <time>2016-10-28T08:36:03Z</time>
      </trkpt>
      <trkpt lat="42.49516" lon="1.55957">
        <ele>1520</ele>
        <time>2016-10-28T08:36:27Z</time>
      </trkpt>
      <trkpt lat="42.49504" lon="1.5596">
        <ele>1522</ele>
        <time>2016-10-28T08:36:41Z</time>
      </trkpt>
      <trkpt lat="42.49493" lon="1.55964">
        <ele>1525</ele>
        <time>2016-10-28T08:37:00Z</time>
      </trkpt>
      <trkpt lat="42.49488" lon="1.55974">
        <ele>1528</ele>
        <time>2016-10-28T08:37:21Z</time>
      </trkpt>
      <trkpt lat="42.4948" lon="1.55989">
        <ele>1530</ele>
        <time>2016-10-28T08:37:41Z</time>
      </trkpt>
      <trkpt lat="42.49467" lon="1.55996">
        <ele>1531</ele>
        <time>2016-10-28T08:37:53Z</time>
      </trkpt>
      <trkpt lat="42.49458" lon="1.56005">
        <ele>1531</ele>
        <time>2016-10-28T08:38:09Z</time>
      </trkpt>
      <trkpt lat="42.49449" lon="1.56014">
        <ele>1531</ele>
        <time>2016-10-28T08:38:22Z</time>
      </trkpt>
      <trkpt lat="42.49438" lon="1.56021">
        <ele>1531</ele>
        <time>2016-10-28T08:38:35Z</time>
      </trkpt>
      <trkpt lat="42.49428" lon="1.56019">
        <ele>1530</ele>
        <time>2016-10-28T08:39:20Z</time>
      </trkpt>
      <trkpt lat="42.49426" lon="1.56018">
        <ele>1532</ele>
        <time>2016-10-28T08:45:59Z</time>
      </trkpt>
      <trkpt lat="42.4943" lon="1.56034">
        <ele>1533</ele>
        <time>2016-10-28T08:46:31Z</time>
      </trkpt>
      <trkpt lat="42.49429" lon="1.56042">
        <ele>1533</ele>
        <time>2016-10-28T08:47:16Z</time>
      </trkpt>
      <trkpt lat="42.49435" lon="1.56047">
        <ele>1533</ele>
        <time>2016-10-28T08:50:15Z</time>
      </trkpt>
      <trkpt lat="42.49435" lon="1.56052">
        <ele>1533</ele>
        <time>2016-10-28T08:51:46Z</time>
      </trkpt>
      <trkpt lat="42.49434" lon="1.56065">
        <ele>1534</ele>
        <time>2016-10-28T08:51:56Z</time>
      </trkpt>
      <trkpt lat="42.49434" lon="1.5608">
        <ele>1535</ele>
        <time>2016-10-28T08:52:08Z</time>
      </trkpt>
      <trkpt lat="42.49432" lon="1.56089">
        <ele>1534</ele>
        <time>2016-10-28T08:53:36Z</time>
      </trkpt>
      <trkpt lat="42.49432" lon="1.56097">
        <ele>1536</ele>
        <time>2016-10-28T08:53:48Z</time>
      </trkpt>
      <trkpt lat="42.4944" lon="1.56102">
        <ele>1536</ele>
        <time>2016-10-28T08:53:59Z</time>
      </trkpt>
      <trkpt lat="42.49447" lon="1.56107">
        <ele>1536</ele>
        <time>2016-10-28T08:54:15Z</time>
      </trkpt>
      <trkpt lat="42.49454" lon="1.56121">
        <ele>1536</ele>
        <time>2016-10-28T08:56:10Z</time>
      </trkpt>
      <trkpt lat="42.49446" lon="1.56125">
        <ele>1539</ele>
        <time>2016-10-28T08:56:27Z</time>
      </trkpt>
      <trkpt lat="42.49438" lon="1.56127">
        <ele>1542</ele>
        <time>2016-10-28T08:56:44Z</time>
      </trkpt>
      <trkpt lat="42.49426" lon="1.56131">
        <ele>1545</ele>
        <time>2016-10-28T08:57:01Z</time>
      </trkpt>
      <trkpt lat="42.49413" lon="1.56133">
        <ele>1548</ele>
        <time>2016-10-28T08:57:23Z</time>
      </trkpt>
      <trkpt lat="42.494" lon="1.56137">
        <ele>1552</ele>
        <time>2016-10-28T08:57:46Z</time>
      </trkpt>
      <trkpt lat="42.49391" lon="1.56142">
        <ele>1556</ele>
        <time>2016-10-28T08:58:07Z</time>
      </trkpt>
      <trkpt lat="42.49379" lon="1.56146">
        <ele>1558</ele>
        <time>2016-10-28T08:58:25Z</time>
      </trkpt>
      <trkpt lat="42.4937" lon="1.56147">
        <ele>1562</ele>
        <time>2016-10-28T08:58:51Z</time>
      </trkpt>
      <trkpt lat="42.49357" lon="1.56152">
        <ele>1565</ele>
        <time>2016-10-28T08:59:13Z</time>
      </trkpt>
      <trkpt lat="42.49349" lon="1.56159">
        <ele>1568</ele>
        <time>2016-10-28T08:59:33Z</time>
      </trkpt>
      <trkpt lat="42.49338" lon="1.56162">
        <ele>1570</ele>
        <time>2016-10-28T08:59:50Z</time>
      </trkpt>
      <trkpt lat="42.49322" lon="1.56163">
        <ele>1572</ele>
        <time>2016-10-28T09:00:31Z</time>
      </trkpt>
      <trkpt lat="42.49314" lon="1.56167">
        <ele>1576</ele>
        <time>2016-10-28T09:00:54Z</time>
      </trkpt>
      <trkpt lat="42.49302" lon="1.56162">
        <ele>1579</ele>
        <time>2016-10-28T09:01:15Z</time>
      </trkpt>
      <trkpt lat="42.4929" lon="1.56163">
        <ele>1581</ele>
        <time>2016-10-28T09:01:33Z</time>
      </trkpt>
      <trkpt lat="42.49278" lon="1.56165">
        <ele>1583</ele>
        <time>2016-10-28T09:01:49Z</time>
      </trkpt>
      <trkpt lat="42.49265" lon="1.56169">
        <ele>1586</ele>
        <time>2016-10-28T09:02:09Z</time>
      </trkpt>
      <trkpt lat="42.49256" lon="1.56181">
        <ele>1589</ele>
        <time>2016-10-28T09:02:30Z</time>
      </trkpt>
      <trkpt lat="42.49247" lon="1.56189">
        <ele>1591</ele>
        <time>2016-10-28T09:02:46Z</time>
      </trkpt>
      <trkpt lat="42.49243" lon="1.56196">
        <ele>1594</ele>
        <time>2016-10-28T09:03:26Z</time>
      </trkpt>
      <trkpt lat="42.49236" lon="1.56203">
        <ele>1596</ele>
        <time>2016-10-28T09:03:43Z</time>
      </trkpt>
      <trkpt lat="42.49222" lon="1.56205">
        <ele>1600</ele>
        <time>2016-10-28T09:04:02Z</time>
      </trkpt>
      <trkpt lat="42.49207" lon="1.56201">
        <ele>1603</ele>
        <time>2016-10-28T09:04:21Z</time>
      </trkpt>
      <trkpt lat="42.49201" lon="1.56201">
        <ele>1606</ele>
        <time>2016-10-28T09:04:41Z</time>
      </trkpt>
      <trkpt lat="42.49196" lon="1.56208">
        <ele>1610</ele>
        <time>2016-10-28T09:05:07Z</time>
      </trkpt>
      <trkpt lat="42.49186" lon="1.56208">
        <ele>1612</ele>
        <time>2016-10-28T09:05:25Z</time>
      </trkpt>
      <trkpt lat="42.49177" lon="1.56197">
        <ele>1616</ele>
        <time>2016-10-28T09:05:47Z</time>
      </trkpt>
      <trkpt lat="42.4917" lon="1.562">
        <ele>1619</ele>
        <time>2016-10-28T09:06:05Z</time>
      </trkpt>
      <trkpt lat="42.49164" lon="1.56195">
        <ele>1621</ele>
        <time>2016-10-28T09:06:26Z</time>
      </trkpt>
      <trkpt lat="42.49155" lon="1.56199">
        <ele>1624</ele>
        <time>2016-10-28T09:06:45Z</time>
      </trkpt>
      <trkpt lat="42.49149" lon="1.56206">
        <ele>1627</ele>
        <time>2016-10-28T09:07:02Z</time>
      </trkpt>
      <trkpt lat="42.49141" lon="1.56202">
        <ele>1631</ele>
        <time>2016-10-28T09:07:25Z</time>
      </trkpt>
      <trkpt lat="42.4913" lon="1.56207">
        <ele>1634</ele>
        <time>2016-10-28T09:07:49Z</time>
      </trkpt>
      <trkpt lat="42.49121" lon="1.56212">
        <ele>1637</ele>
        <time>2016-10-28T09:08:06Z</time>
      </trkpt>
      <trkpt lat="42.49112" lon="1.56211">
        <ele>1639</ele>
        <time>2016-10-28T09:09:24Z</time>
      </trkpt>
      <trkpt lat="42.49105" lon="1.56213">
        <ele>1643</ele>
        <time>2016-10-28T09:09:43Z</time>
      </trkpt>
      <trkpt lat="42.49094" lon="1.56213">
        <ele>1645</ele>
        <time>2016-10-28T09:10:01Z</time>
      </trkpt>
      <trkpt lat="42.49086" lon="1.56216">
        <ele>1648</ele>
        <time>2016-10-28T09:10:19Z</time>
      </trkpt>
      <trkpt lat="42.49075" lon="1.56219">
        <ele>1652</ele>
        <time>2016-10-28T09:10:38Z</time>
      </trkpt>
      <trkpt lat="42.49069" lon="1.56225">
        <ele>1654</ele>
        <time>2016-10-28T09:10:56Z</time>
      </trkpt>
      <trkpt lat="42.4906" lon="1.56229">
        <ele>1657</ele>
        <time>2016-10-28T09:11:10Z</time>
      </trkpt>
      <trkpt lat="42.49044" lon="1.56225">
        <ele>1658</ele>
        <time>2016-10-28T09:12:39Z</time>
      </trkpt>
      <trkpt lat="42.49039" lon="1.56229">
        <ele>1663</ele>
        <time>2016-10-28T09:13:04Z</time>
      </trkpt>
      <trkpt lat="42.49033" lon="1.56234">
        <ele>1666</ele>
        <time>2016-10-28T09:13:22Z</time>
      </trkpt>
      <trkpt lat="42.49024" lon="1.56233">
        <ele>1670</ele>
        <time>2016-10-28T09:13:46Z</time>
      </trkpt>
      <trkpt lat="42.49007" lon="1.56224">
        <ele>1673</ele>
        <time>2016-10-28T09:14:04Z</time>
      </trkpt>
      <trkpt lat="42.48991" lon="1.56224">
        <ele>1678</ele>
        <time>2016-10-28T09:14:24Z</time>
      </trkpt>
      <trkpt lat="42.48978" lon="1.56223">
        <ele>1681</ele>
        <time>2016-10-28T09:14:41Z</time>
      </trkpt>
      <trkpt lat="42.48968" lon="1.56231">
        <ele>1684</ele>
        <time>2016-10-28T09:15:02Z</time>
      </trkpt>
      <trkpt lat="42.48956" lon="1.56233">
        <ele>1688</ele>
        <time>2016-10-28T09:15:21Z</time>
      </trkpt>
      <trkpt lat="42.48949" lon="1.56238">
        <ele>1690</ele>
        <time>2016-10-28T09:15:37Z</time>
      </trkpt>
      <trkpt lat="42.48939" lon="1.56242">
        <ele>1693</ele>
        <time>2016-10-28T09:15:54Z</time>
      </trkpt>
      <trkpt lat="42.48928" lon="1.56244">
        <ele>1696</ele>
        <time>2016-10-28T09:16:14Z</time>
      </trkpt>
      <trkpt lat="42.48917" lon="1.56254">
        <ele>1700</ele>
        <time>2016-10-28T09:16:36Z</time>
      </trkpt>
      <trkpt lat="42.48915" lon="1.56264">
        <ele>1703</ele>
        <time>2016-10-28T09:16:53Z</time>
      </trkpt>
      <trkpt lat="42.4891" lon="1.56272">
        <ele>1709</ele>
        <time>2016-10-28T09:17:23Z</time>
      </trkpt>
      <trkpt lat="42.48897" lon="1.56272">
        <ele>1714</ele>
        <time>2016-10-28T09:17:48Z</time>
      </trkpt>
      <trkpt lat="42.48885" lon="1.56273">
        <ele>1718</ele>
        <time>2016-10-28T09:18:06Z</time>
      </trkpt>
      <trkpt lat="42.48875" lon="1.56271">
        <ele>1722</ele>
        <time>2016-10-28T09:18:28Z</time>
      </trkpt>
      <trkpt lat="42.48863" lon="1.56266">
        <ele>1724</ele>
        <time>2016-10-28T09:18:44Z</time>
      </trkpt>
      <trkpt lat="42.48851" lon="1.56262">
        <ele>1726</ele>
        <time>2016-10-28T09:18:57Z</time>
      </trkpt>
      <trkpt lat="42.48845" lon="1.56265">
        <ele>1728</ele>
        <time>2016-10-28T09:19:08Z</time>
      </trkpt>
      <trkpt lat="42.48842" lon="1.56274">
        <ele>1731</ele>
        <time>2016-10-28T09:19:27Z</time>
      </trkpt>
      <trkpt lat="42.48832" lon="1.56275">
        <ele>1733</ele>
        <time>2016-10-28T09:19:40Z</time>
      </trkpt>
      <trkpt lat="42.48821" lon="1.56275">
        <ele>1736</ele>
        <time>2016-10-28T09:19:58Z</time>
      </trkpt>
      <trkpt lat="42.48815" lon="1.56278">
        <ele>1740</ele>
        <time>2016-10-28T09:20:23Z</time>
      </trkpt>
      <trkpt lat="42.48807" lon="1.5629">
        <ele>1747</ele>
        <time>2016-10-28T09:21:06Z</time>
      </trkpt>
      <trkpt lat="42.48792" lon="1.563">
        <ele>1755</ele>
        <time>2016-10-28T09:32:09Z</time>
      </trkpt>
      <trkpt lat="42.48771" lon="1.56303">
        <ele>1759</ele>
        <time>2016-10-28T09:32:39Z</time>
      </trkpt>
      <trkpt lat="42.48759" lon="1.56311">
        <ele>1762</ele>
        <time>2016-10-28T09:32:58Z</time>
      </trkpt>
      <trkpt lat="42.48757" lon="1.56317">
        <ele>1764</ele>
        <time>2016-10-28T09:33:09Z</time>
      </trkpt>
      <trkpt lat="42.48749" lon="1.56323">
        <ele>1767</ele>
        <time>2016-10-28T09:33:28Z</time>
      </trkpt>
      <trkpt lat="42.48736" lon="1.56324">
        <ele>1771</ele>
        <time>2016-10-28T09:33:53Z</time>
      </trkpt>
      <trkpt lat="42.48723" lon="1.56319">
        <ele>1772</ele>
        <time>2016-10-28T09:34:06Z</time>
      </trkpt>
      <trkpt lat="42.4871" lon="1.56316">
        <ele>1775</ele>
        <time>2016-10-28T09:34:25Z</time>
      </trkpt>
      <trkpt lat="42.48703" lon="1.56312">
        <ele>1775</ele>
        <time>2016-10-28T09:35:01Z</time>
      </trkpt>
      <trkpt lat="42.48696" lon="1.5632">
        <ele>1777</ele>
        <time>2016-10-28T09:35:28Z</time>
      </trkpt>
      <trkpt lat="42.48698" lon="1.5633">
        <ele>1779</ele>
        <time>2016-10-28T09:37:04Z</time>
      </trkpt>
      <trkpt lat="42.48693" lon="1.56335">
        <ele>1782</ele>
        <time>2016-10-28T09:37:23Z</time>
      </trkpt>
      <trkpt lat="42.48686" lon="1.56336">
        <ele>1785</ele>
        <time>2016-10-28T09:37:40Z</time>
      </trkpt>
      <trkpt lat="42.48681" lon="1.56341">
        <ele>1788</ele>
        <time>2016-10-28T09:37:57Z</time>
      </trkpt>
      <trkpt lat="42.48671" lon="1.56344">
        <ele>1790</ele>
        <time>2016-10-28T09:38:11Z</time>
      </trkpt>
      <trkpt lat="42.48663" lon="1.56348">
        <ele>1793</ele>
        <time>2016-10-28T09:38:40Z</time>
      </trkpt>
      <trkpt lat="42.48658" lon="1.56352">
        <ele>1796</ele>
        <time>2016-10-28T09:39:09Z</time>
      </trkpt>
      <trkpt lat="42.4865" lon="1.56356">
        <ele>1800</ele>
        <time>2016-10-28T09:39:25Z</time>
      </trkpt>
      <trkpt lat="42.48644" lon="1.56363">
        <ele>1804</ele>
        <time>2016-10-28T09:39:46Z</time>
      </trkpt>
      <trkpt lat="42.48645" lon="1.5637">
        <ele>1806</ele>
        <time>2016-10-28T09:40:04Z</time>
      </trkpt>
      <trkpt lat="42.48644" lon="1.56379">
        <ele>1809</ele>
        <time>2016-10-28T09:40:19Z</time>
      </trkpt>
      <trkpt lat="42.48643" lon="1.56386">
        <ele>1812</ele>
        <time>2016-10-28T09:40:37Z</time>
      </trkpt>
      <trkpt lat="42.48638" lon="1.56394">
        <ele>1815</ele>
        <time>2016-10-28T09:40:50Z</time>
      </trkpt>
      <trkpt lat="42.48631" lon="1.564">
        <ele>1817</ele>
        <time>2016-10-28T09:41:06Z</time>
      </trkpt>
      <trkpt lat="42.48624" lon="1.56409">
        <ele>1818</ele>
        <time>2016-10-28T09:41:21Z</time>
      </trkpt>
      <trkpt lat="42.48613" lon="1.56415">
        <ele>1820</ele>
        <time>2016-10-28T09:41:33Z</time>
      </trkpt>
      <trkpt lat="42.48605" lon="1.5642">
        <ele>1822</ele>
        <time>2016-10-28T09:41:49Z</time>
      </trkpt>
      <trkpt lat="42.48597" lon="1.5642">
        <ele>1825</ele>
        <time>2016-10-28T09:42:09Z</time>
      </trkpt>
      <trkpt lat="42.48587" lon="1.56421">
        <ele>1828</ele>
        <time>2016-10-28T09:42:22Z</time>
      </trkpt>
      <trkpt lat="42.48581" lon="1.56421">
        <ele>1830</ele>
        <time>2016-10-28T09:43:46Z</time>
      </trkpt>
      <trkpt lat="42.48576" lon="1.56428">
        <ele>1831</ele>
        <time>2016-10-28T09:44:00Z</time>
      </trkpt>
      <trkpt lat="42.48566" lon="1.56431">
        <ele>1835</ele>
        <time>2016-10-28T09:44:16Z</time>
      </trkpt>
      <trkpt lat="42.4856" lon="1.56435">
        <ele>1838</ele>
        <time>2016-10-28T09:44:31Z</time>
      </trkpt>
      <trkpt lat="42.48551" lon="1.56438">
        <ele>1841</ele>
        <time>2016-10-28T09:44:47Z</time>
      </trkpt>
      <trkpt lat="42.48544" lon="1.56442">
        <ele>1843</ele>
        <time>2016-10-28T09:45:04Z</time>
      </trkpt>
      <trkpt lat="42.48537" lon="1.56445">
        <ele>1844</ele>
        <time>2016-10-28T09:45:20Z</time>
      </trkpt>
      <trkpt lat="42.48528" lon="1.56448">
        <ele>1848</ele>
        <time>2016-10-28T09:45:40Z</time>
      </trkpt>
      <trkpt lat="42.48523" lon="1.56452">
        <ele>1851</ele>
        <time>2016-10-28T09:46:01Z</time>
      </trkpt>
      <trkpt lat="42.4851" lon="1.56452">
        <ele>1854</ele>
        <time>2016-10-28T09:46:20Z</time>
      </trkpt>
      <trkpt lat="42.48499" lon="1.56455">
        <ele>1857</ele>
        <time>2016-10-28T09:46:42Z</time>
      </trkpt>
      <trkpt lat="42.48488" lon="1.56456">
        <ele>1858</ele>
        <time>2016-10-28T09:46:55Z</time>
      </trkpt>
      <trkpt lat="42.48477" lon="1.56459">
        <ele>1861</ele>
        <time>2016-10-28T09:47:11Z</time>
      </trkpt>
      <trkpt lat="42.48474" lon="1.56469">
        <ele>1865</ele>
        <time>2016-10-28T09:47:37Z</time>
      </trkpt>
      <trkpt lat="42.48458" lon="1.56475">
        <ele>1872</ele>
        <time>2016-10-28T09:48:21Z</time>
      </trkpt>
      <trkpt lat="42.48446" lon="1.56484">
        <ele>1877</ele>
        <time>2016-10-28T09:48:50Z</time>
      </trkpt>
      <trkpt lat="42.48432" lon="1.5649">
        <ele>1879</ele>
        <time>2016-10-28T09:49:11Z</time>
      </trkpt>
      <trkpt lat="42.48419" lon="1.565">
        <ele>1881</ele>
        <time>2016-10-28T09:49:30Z</time>
      </trkpt>
      <trkpt lat="42.4841" lon="1.56514">
        <ele>1885</ele>
        <time>2016-10-28T09:49:55Z</time>
      </trkpt>
      <trkpt lat="42.48404" lon="1.56532">
        <ele>1889</ele>
        <time>2016-10-28T09:50:18Z</time>
      </trkpt>
      <trkpt lat="42.48394" lon="1.56547">
        <ele>1893</ele>
        <time>2016-10-28T09:50:46Z</time>
      </trkpt>
      <trkpt lat="42.48385" lon="1.56564">
        <ele>1895</ele>
        <time>2016-10-28T09:51:13Z</time>
      </trkpt>
      <trkpt lat="42.48366" lon="1.5657">
        <ele>1897</ele>
        <time>2016-10-28T09:51:27Z</time>
      </trkpt>
      <trkpt lat="42.48359" lon="1.56577">
        <ele>1899</ele>
        <time>2016-10-28T09:51:40Z</time>
      </trkpt>
      <trkpt lat="42.48356" lon="1.56586">
        <ele>1902</ele>
        <time>2016-10-28T09:52:04Z</time>
      </trkpt>
      <trkpt lat="42.48349" lon="1.56595">
        <ele>1905</ele>
        <time>2016-10-28T09:52:19Z</time>
      </trkpt>
      <trkpt lat="42.48343" lon="1.56605">
        <ele>1907</ele>
        <time>2016-10-28T09:52:33Z</time>
      </trkpt>
      <trkpt lat="42.48333" lon="1.56609">
        <ele>1909</ele>
        <time>2016-10-28T09:52:46Z</time>
      </trkpt>
      <trkpt lat="42.48324" lon="1.56611">
        <ele>1910</ele>
        <time>2016-10-28T09:52:59Z</time>
      </trkpt>
      <trkpt lat="42.48315" lon="1.56612">
        <ele>1912</ele>
        <time>2016-10-28T09:53:11Z</time>
      </trkpt>
      <trkpt lat="42.48309" lon="1.56618">
        <ele>1914</ele>
        <time>2016-10-28T09:53:24Z</time>
      </trkpt>
      <trkpt lat="42.483" lon="1.5662">
        <ele>1915</ele>
        <time>2016-10-28T09:53:37Z</time>
      </trkpt>
      <trkpt lat="42.48291" lon="1.56622">
        <ele>1916</ele>
        <time>2016-10-28T09:53:49Z</time>
      </trkpt>
      <trkpt lat="42.48285" lon="1.56632">
        <ele>1917</ele>
        <time>2016-10-28T09:54:02Z</time>
      </trkpt>
      <trkpt lat="42.48278" lon="1.5664">
        <ele>1918</ele>
        <time>2016-10-28T09:54:15Z</time>
      </trkpt>
      <trkpt lat="42.48272" lon="1.56647">
        <ele>1919</ele>
        <time>2016-10-28T09:54:28Z</time>
      </trkpt>
      <trkpt lat="42.48269" lon="1.56656">
        <ele>1921</ele>
        <time>2016-10-28T09:54:43Z</time>
      </trkpt>
      <trkpt lat="42.48259" lon="1.56664">
        <ele>1922</ele>
        <time>2016-10-28T09:54:57Z</time>
      </trkpt>
      <trkpt lat="42.4825" lon="1.56669">
        <ele>1923</ele>
        <time>2016-10-28T09:55:13Z</time>
      </trkpt>
      <trkpt lat="42.48239" lon="1.56674">
        <ele>1922</ele>
        <time>2016-10-28T09:55:30Z</time>
      </trkpt>
      <trkpt lat="42.48225" lon="1.56681">
        <ele>1923</ele>
        <time>2016-10-28T09:55:46Z</time>
      </trkpt>
      <trkpt lat="42.48215" lon="1.56686">
        <ele>1924</ele>
        <time>2016-10-28T09:55:58Z</time>
      </trkpt>
      <trkpt lat="42.48203" lon="1.5669">
        <ele>1925</ele>
        <time>2016-10-28T09:56:13Z</time>
      </trkpt>
      <trkpt lat="42.48195" lon="1.56698">
        <ele>1926</ele>
        <time>2016-10-28T09:56:32Z</time>
      </trkpt>
      <trkpt lat="42.48182" lon="1.56709">
        <ele>1927</ele>
        <time>2016-10-28T09:56:50Z</time>
      </trkpt>
      <trkpt lat="42.48168" lon="1.56719">
        <ele>1929</ele>
        <time>2016-10-28T09:57:05Z</time>
      </trkpt>
      <trkpt lat="42.48158" lon="1.56725">
        <ele>1930</ele>
        <time>2016-10-28T09:57:19Z</time>
      </trkpt>
      <trkpt lat="42.48151" lon="1.56735">
        <ele>1932</ele>
        <time>2016-10-28T09:57:34Z</time>
      </trkpt>
      <trkpt lat="42.48143" lon="1.56741">
        <ele>1934</ele>
        <time>2016-10-28T09:57:47Z</time>
      </trkpt>
      <trkpt lat="42.48133" lon="1.56746">
        <ele>1935</ele>
        <time>2016-10-28T09:58:01Z</time>
      </trkpt>
      <trkpt lat="42.48126" lon="1.56753">
        <ele>1939</ele>
        <time>2016-10-28T09:58:23Z</time>
      </trkpt>
      <trkpt lat="42.4812" lon="1.56761">
        <ele>1941</ele>
        <time>2016-10-28T09:58:38Z</time>
      </trkpt>
      <trkpt lat="42.48113" lon="1.5677">
        <ele>1943</ele>
        <time>2016-10-28T09:58:55Z</time>
      </trkpt>
      <trkpt lat="42.48105" lon="1.56777">
        <ele>1946</ele>
        <time>2016-10-28T09:59:13Z</time>
      </trkpt>
      <trkpt lat="42.48092" lon="1.56779">
        <ele>1950</ele>
        <time>2016-10-28T09:59:36Z</time>
      </trkpt>
      <trkpt lat="42.48082" lon="1.56781">
        <ele>1955</ele>
        <time>2016-10-28T10:00:15Z</time>
      </trkpt>
      <trkpt lat="42.48076" lon="1.56792">
        <ele>1957</ele>
        <time>2016-10-28T10:00:34Z</time>
      </trkpt>
      <trkpt lat="42.48071" lon="1.56801">
        <ele>1960</ele>
        <time>2016-10-28T10:00:53Z</time>
      </trkpt>
      <trkpt lat="42.48067" lon="1.56811">
        <ele>1962</ele>
        <time>2016-10-28T10:01:10Z</time>
      </trkpt>
      <trkpt lat="42.48063" lon="1.56819">
        <ele>1965</ele>
        <time>2016-10-28T10:01:25Z</time>
      </trkpt>
      <trkpt lat="42.48058" lon="1.56831">
        <ele>1967</ele>
        <time>2016-10-28T10:01:43Z</time>
      </trkpt>
      <trkpt lat="42.48051" lon="1.56837">
        <ele>1969</ele>
        <time>2016-10-28T10:02:04Z</time>
      </trkpt>
      <trkpt lat="42.48041" lon="1.56849">
        <ele>1973</ele>
        <time>2016-10-28T10:02:32Z</time>
      </trkpt>
      <trkpt lat="42.48031" lon="1.56864">
        <ele>1976</ele>
        <time>2016-10-28T10:02:50Z</time>
      </trkpt>
      <trkpt lat="42.48023" lon="1.56867">
        <ele>1978</ele>
        <time>2016-10-28T10:03:09Z</time>
      </trkpt>
      <trkpt lat="42.48018" lon="1.56874">
        <ele>1980</ele>
        <time>2016-10-28T10:03:35Z</time>
      </trkpt>
      <trkpt lat="42.48006" lon="1.56885">
        <ele>1982</ele>
        <time>2016-10-28T10:03:51Z</time>
      </trkpt>
      <trkpt lat="42.48005" lon="1.56892">
        <ele>1985</ele>
        <time>2016-10-28T10:04:13Z</time>
      </trkpt>
      <trkpt lat="42.48008" lon="1.56897">
        <ele>1993</ele>
        <time>2016-10-28T10:36:30Z</time>
      </trkpt>
      <trkpt lat="42.48008" lon="1.56907">
        <ele>1997</ele>
        <time>2016-10-28T10:36:46Z</time>
      </trkpt>
      <trkpt lat="42.48009" lon="1.56917">
        <ele>2000</ele>
        <time>2016-10-28T10:37:01Z</time>
      </trkpt>
      <trkpt lat="42.4801" lon="1.56931">
        <ele>2004</ele>
        <time>2016-10-28T10:37:16Z</time>
      </trkpt>
      <trkpt lat="42.48002" lon="1.56942">
        <ele>2007</ele>
        <time>2016-10-28T10:37:36Z</time>
      </trkpt>
      <trkpt lat="42.47994" lon="1.56954">
        <ele>2010</ele>
        <time>2016-10-28T10:37:54Z</time>
      </trkpt>
      <trkpt lat="42.47989" lon="1.5697">
        <ele>2013</ele>
        <time>2016-10-28T10:38:11Z</time>
      </trkpt>
      <trkpt lat="42.47987" lon="1.56977">
        <ele>2017</ele>
        <time>2016-10-28T10:38:34Z</time>
      </trkpt>
      <trkpt lat="42.47986" lon="1.56983">
        <ele>2021</ele>
        <time>2016-10-28T10:38:58Z</time>
      </trkpt>
      <trkpt lat="42.47988" lon="1.56997">
        <ele>2025</ele>
        <time>2016-10-28T10:39:19Z</time>
      </trkpt>
      <trkpt lat="42.47989" lon="1.57008">
        <ele>2028</ele>
        <time>2016-10-28T10:39:34Z</time>
      </trkpt>
      <trkpt lat="42.47992" lon="1.57013">
        <ele>2035</ele>
        <time>2016-10-28T10:42:08Z</time>
      </trkpt>
      <trkpt lat="42.47995" lon="1.57021">
        <ele>2036</ele>
        <time>2016-10-28T10:43:35Z</time>
      </trkpt>
      <trkpt lat="42.47992" lon="1.5703">
        <ele>2040</ele>
        <time>2016-10-28T10:43:58Z</time>
      </trkpt>
      <trkpt lat="42.47985" lon="1.57042">
        <ele>2044</ele>
        <time>2016-10-28T10:44:27Z</time>
      </trkpt>
      <trkpt lat="42.47984" lon="1.57055">
        <ele>2049</ele>
        <time>2016-10-28T10:44:51Z</time>
      </trkpt>
      <trkpt lat="42.47976" lon="1.57067">
        <ele>2053</ele>
        <time>2016-10-28T10:45:13Z</time>
      </trkpt>
      <trkpt lat="42.47979" lon="1.57078">
        <ele>2058</ele>
        <time>2016-10-28T10:45:42Z</time>
      </trkpt>
      <trkpt lat="42.4798" lon="1.57083">
        <ele>2062</ele>
        <time>2016-10-28T10:46:06Z</time>
      </trkpt>
      <trkpt lat="42.47981" lon="1.57102">
        <ele>2067</ele>
        <time>2016-10-28T10:46:34Z</time>
      </trkpt>
      <trkpt lat="42.4798" lon="1.57119">
        <ele>2073</ele>
        <time>2016-10-28T10:47:09Z</time>
      </trkpt>
      <trkpt lat="42.47979" lon="1.57141">
        <ele>2077</ele>
        <time>2016-10-28T10:49:41Z</time>
      </trkpt>
      <trkpt lat="42.47977" lon="1.57158">
        <ele>2083</ele>
        <time>2016-10-28T10:50:09Z</time>
      </trkpt>
      <trkpt lat="42.47982" lon="1.57166">
        <ele>2089</ele>
        <time>2016-10-28T10:50:38Z</time>
      </trkpt>
      <trkpt lat="42.47992" lon="1.57177">
        <ele>2095</ele>
        <time>2016-10-28T10:51:10Z</time>
      </trkpt>
      <trkpt lat="42.47997" lon="1.57199">
        <ele>2099</ele>
        <time>2016-10-28T10:51:32Z</time>
      </trkpt>
      <trkpt lat="42.48004" lon="1.57216">
        <ele>2103</ele>
        <time>2016-10-28T10:51:53Z</time>
      </trkpt>
      <trkpt lat="42.48006" lon="1.57231">
        <ele>2105</ele>
        <time>2016-10-28T10:52:27Z</time>
      </trkpt>
      <trkpt lat="42.48011" lon="1.5724">
        <ele>2107</ele>
        <time>2016-10-28T10:55:22Z</time>
      </trkpt>
      <trkpt lat="42.48005" lon="1.5725">
        <ele>2107</ele>
        <time>2016-10-28T10:55:38Z</time>
      </trkpt>
      <trkpt lat="42.47999" lon="1.57261">
        <ele>2106</ele>
        <time>2016-10-28T10:55:47Z</time>
      </trkpt>
      <trkpt lat="42.47995" lon="1.57275">
        <ele>2106</ele>
        <time>2016-10-28T10:56:06Z</time>
      </trkpt>
      <trkpt lat="42.47987" lon="1.57281">
        <ele>2105</ele>
        <time>2016-10-28T10:56:41Z</time>
      </trkpt>
      <trkpt lat="42.47979" lon="1.57278">
        <ele>2103</ele>
        <time>2016-10-28T10:56:56Z</time>
      </trkpt>
      <trkpt lat="42.47968" lon="1.57276">
        <ele>2101</ele>
        <time>2016-10-28T10:57:14Z</time>
      </trkpt>
      <trkpt lat="42.4796" lon="1.57267">
        <ele>2097</ele>
        <time>2016-10-28T10:57:38Z</time>
      </trkpt>
      <trkpt lat="42.47953" lon="1.57264">
        <ele>2097</ele>
        <time>2016-10-28T10:57:59Z</time>
      </trkpt>
      <trkpt lat="42.47944" lon="1.57256">
        <ele>2095</ele>
        <time>2016-10-28T10:58:14Z</time>
      </trkpt>
      <trkpt lat="42.47939" lon="1.57244">
        <ele>2093</ele>
        <time>2016-10-28T10:58:29Z</time>
      </trkpt>
      <trkpt lat="42.47935" lon="1.5723">
        <ele>2090</ele>
        <time>2016-10-28T10:58:42Z</time>
      </trkpt>
      <trkpt lat="42.47933" lon="1.57216">
        <ele>2087</ele>
        <time>2016-10-28T10:58:53Z</time>
      </trkpt>
      <trkpt lat="42.47929" lon="1.57205">
        <ele>2084</ele>
        <time>2016-10-28T10:59:07Z</time>
      </trkpt>
      <trkpt lat="42.47922" lon="1.57198">
        <ele>2082</ele>
        <time>2016-10-28T10:59:21Z</time>
      </trkpt>
      <trkpt lat="42.47915" lon="1.57191">
        <ele>2080</ele>
        <time>2016-10-28T10:59:33Z</time>
      </trkpt>
      <trkpt lat="42.47908" lon="1.57182">
        <ele>2079</ele>
        <time>2016-10-28T10:59:48Z</time>
      </trkpt>
      <trkpt lat="42.47901" lon="1.57171">
        <ele>2078</ele>
        <time>2016-10-28T11:00:03Z</time>
      </trkpt>
      <trkpt lat="42.47894" lon="1.5716">
        <ele>2076</ele>
        <time>2016-10-28T11:00:19Z</time>
      </trkpt>
      <trkpt lat="42.47886" lon="1.5715">
        <ele>2075</ele>
        <time>2016-10-28T11:00:32Z</time>
      </trkpt>
      <trkpt lat="42.47877" lon="1.57139">
        <ele>2076</ele>
        <time>2016-10-28T11:00:45Z</time>
      </trkpt>
      <trkpt lat="42.47866" lon="1.57126">
        <ele>2075</ele>
        <time>2016-10-28T11:01:01Z</time>
      </trkpt>
      <trkpt lat="42.47855" lon="1.57119">
        <ele>2074</ele>
        <time>2016-10-28T11:01:12Z</time>
      </trkpt>
      <trkpt lat="42.47845" lon="1.57108">
        <ele>2074</ele>
        <time>2016-10-28T11:01:26Z</time>
      </trkpt>
      <trkpt lat="42.47837" lon="1.57101">
        <ele>2074</ele>
        <time>2016-10-28T11:01:42Z</time>
      </trkpt>
      <trkpt lat="42.47821" lon="1.57092">
        <ele>2074</ele>
        <time>2016-10-28T11:02:52Z</time>
      </trkpt>
      <trkpt lat="42.47811" lon="1.57087">
        <ele>2075</ele>
        <time>2016-10-28T11:03:06Z</time>
      </trkpt>
      <trkpt lat="42.47803" lon="1.57077">
        <ele>2076</ele>
        <time>2016-10-28T11:03:21Z</time>
      </trkpt>
      <trkpt lat="42.47796" lon="1.57066">
        <ele>2077</ele>
        <time>2016-10-28T11:03:37Z</time>
      </trkpt>
      <trkpt lat="42.47787" lon="1.57062">
        <ele>2078</ele>
        <time>2016-10-28T11:03:49Z</time>
      </trkpt>
      <trkpt lat="42.47779" lon="1.57056">
        <ele>2079</ele>
        <time>2016-10-28T11:04:00Z</time>
      </trkpt>
      <trkpt lat="42.47771" lon="1.57046">
        <ele>2079</ele>
        <time>2016-10-28T11:04:11Z</time>
      </trkpt>
      <trkpt lat="42.47759" lon="1.5704">
        <ele>2080</ele>
        <time>2016-10-28T11:04:22Z</time>
      </trkpt>
      <trkpt lat="42.47752" lon="1.57031">
        <ele>2081</ele>
        <time>2016-10-28T11:04:46Z</time>
      </trkpt>
      <trkpt lat="42.47743" lon="1.57029">
        <ele>2082</ele>
        <time>2016-10-28T11:04:59Z</time>
      </trkpt>
      <trkpt lat="42.47734" lon="1.57025">
        <ele>2083</ele>
        <time>2016-10-28T11:05:10Z</time>
      </trkpt>
      <trkpt lat="42.47727" lon="1.57014">
        <ele>2085</ele>
        <time>2016-10-28T11:05:22Z</time>
      </trkpt>
      <trkpt lat="42.47719" lon="1.57004">
        <ele>2087</ele>
        <time>2016-10-28T11:05:33Z</time>
      </trkpt>
      <trkpt lat="42.47713" lon="1.56997">
        <ele>2089</ele>
        <time>2016-10-28T11:05:44Z</time>
      </trkpt>
      <trkpt lat="42.47704" lon="1.56996">
        <ele>2091</ele>
        <time>2016-10-28T11:05:56Z</time>
      </trkpt>
      <trkpt lat="42.47695" lon="1.56992">
        <ele>2092</ele>
        <time>2016-10-28T11:06:08Z</time>
      </trkpt>
      <trkpt lat="42.47687" lon="1.56988">
        <ele>2093</ele>
        <time>2016-10-28T11:06:19Z</time>
      </trkpt>
      <trkpt lat="42.47678" lon="1.56985">
        <ele>2093</ele>
        <time>2016-10-28T11:06:30Z</time>
      </trkpt>
      <trkpt lat="42.47669" lon="1.56984">
        <ele>2094</ele>
        <time>2016-10-28T11:06:45Z</time>
      </trkpt>
      <trkpt lat="42.4766" lon="1.56985">
        <ele>2095</ele>
        <time>2016-10-28T11:06:57Z</time>
      </trkpt>
      <trkpt lat="42.4765" lon="1.56983">
        <ele>2093</ele>
        <time>2016-10-28T11:07:07Z</time>
      </trkpt>
      <trkpt lat="42.47642" lon="1.56978">
        <ele>2093</ele>
        <time>2016-10-28T11:07:31Z</time>
      </trkpt>
      <trkpt lat="42.47634" lon="1.56977">
        <ele>2094</ele>
        <time>2016-10-28T11:07:42Z</time>
      </trkpt>
      <trkpt lat="42.47627" lon="1.56967">
        <ele>2095</ele>
        <time>2016-10-28T11:07:52Z</time>
      </trkpt>
      <trkpt lat="42.47621" lon="1.56958">
        <ele>2096</ele>
        <time>2016-10-28T11:08:02Z</time>
      </trkpt>
      <trkpt lat="42.47615" lon="1.56949">
        <ele>2097</ele>
        <time>2016-10-28T11:08:11Z</time>
      </trkpt>
      <trkpt lat="42.47608" lon="1.56939">
        <ele>2097</ele>
        <time>2016-10-28T11:08:20Z</time>
      </trkpt>
      <trkpt lat="42.47601" lon="1.56931">
        <ele>2097</ele>
        <time>2016-10-28T11:08:29Z</time>
      </trkpt>
      <trkpt lat="42.47593" lon="1.56924">
        <ele>2098</ele>
        <time>2016-10-28T11:08:38Z</time>
      </trkpt>
      <trkpt lat="42.47585" lon="1.56917">
        <ele>2099</ele>
        <time>2016-10-28T11:08:47Z</time>
      </trkpt>
      <trkpt lat="42.47579" lon="1.56907">
        <ele>2101</ele>
        <time>2016-10-28T11:08:59Z</time>
      </trkpt>
      <trkpt lat="42.47573" lon="1.56899">
        <ele>2101</ele>
        <time>2016-10-28T11:09:09Z</time>
      </trkpt>
      <trkpt lat="42.47567" lon="1.56888">
        <ele>2102</ele>
        <time>2016-10-28T11:09:18Z</time>
      </trkpt>
      <trkpt lat="42.47562" lon="1.56877">
        <ele>2103</ele>
        <time>2016-10-28T11:09:27Z</time>
      </trkpt>
      <trkpt lat="42.47555" lon="1.56869">
        <ele>2104</ele>
        <time>2016-10-28T11:09:36Z</time>
      </trkpt>
      <trkpt lat="42.47547" lon="1.56863">
        <ele>2105</ele>
        <time>2016-10-28T11:09:47Z</time>
      </trkpt>
      <trkpt lat="42.47539" lon="1.5686">
        <ele>2107</ele>
        <time>2016-10-28T11:10:00Z</time>
      </trkpt>
      <trkpt lat="42.47532" lon="1.56856">
        <ele>2110</ele>
        <time>2016-10-28T11:10:14Z</time>
      </trkpt>
      <trkpt lat="42.47523" lon="1.56853">
        <ele>2111</ele>
        <time>2016-10-28T11:10:25Z</time>
      </trkpt>
      <trkpt lat="42.47519" lon="1.56851">
        <ele>2110</ele>
        <time>2016-10-28T11:12:33Z</time>
      </trkpt>
      <trkpt lat="42.47511" lon="1.56847">
        <ele>2111</ele>
        <time>2016-10-28T11:12:43Z</time>
      </trkpt>
      <trkpt lat="42.47503" lon="1.5684">
        <ele>2112</ele>
        <time>2016-10-28T11:13:26Z</time>
      </trkpt>
      <trkpt lat="42.47496" lon="1.56834">
        <ele>2113</ele>
        <time>2016-10-28T11:13:36Z</time>
      </trkpt>
      <trkpt lat="42.47489" lon="1.56825">
        <ele>2115</ele>
        <time>2016-10-28T11:13:47Z</time>
      </trkpt>
      <trkpt lat="42.47481" lon="1.56822">
        <ele>2117</ele>
        <time>2016-10-28T11:13:59Z</time>
      </trkpt>
      <trkpt lat="42.47474" lon="1.56816">
        <ele>2118</ele>
        <time>2016-10-28T11:14:11Z</time>
      </trkpt>
      <trkpt lat="42.47467" lon="1.5681">
        <ele>2119</ele>
        <time>2016-10-28T11:14:25Z</time>
      </trkpt>
      <trkpt lat="42.47458" lon="1.56806">
        <ele>2119</ele>
        <time>2016-10-28T11:14:36Z</time>
      </trkpt>
      <trkpt lat="42.4745" lon="1.56802">
        <ele>2120</ele>
        <time>2016-10-28T11:14:51Z</time>
      </trkpt>
      <trkpt lat="42.47444" lon="1.56793">
        <ele>2122</ele>
        <time>2016-10-28T11:15:03Z</time>
      </trkpt>
      <trkpt lat="42.47434" lon="1.56786">
        <ele>2125</ele>
        <time>2016-10-28T11:15:20Z</time>
      </trkpt>
      <trkpt lat="42.47428" lon="1.5678">
        <ele>2127</ele>
        <time>2016-10-28T11:15:33Z</time>
      </trkpt>
      <trkpt lat="42.47421" lon="1.56778">
        <ele>2129</ele>
        <time>2016-10-28T11:15:47Z</time>
      </trkpt>
      <trkpt lat="42.47413" lon="1.56779">
        <ele>2129</ele>
        <time>2016-10-28T11:15:59Z</time>
      </trkpt>
      <trkpt lat="42.47404" lon="1.56779">
        <ele>2129</ele>
        <time>2016-10-28T11:16:10Z</time>
      </trkpt>
      <trkpt lat="42.47394" lon="1.5678">
        <ele>2130</ele>
        <time>2016-10-28T11:16:22Z</time>
      </trkpt>
      <trkpt lat="42.47387" lon="1.5678">
        <ele>2130</ele>
        <time>2016-10-28T11:16:42Z</time>
      </trkpt>
      <trkpt lat="42.47378" lon="1.56785">
        <ele>2132</ele>
        <time>2016-10-28T11:16:57Z</time>
      </trkpt>
      <trkpt lat="42.47368" lon="1.56778">
        <ele>2134</ele>
        <time>2016-10-28T11:17:10Z</time>
      </trkpt>
      <trkpt lat="42.4736" lon="1.56776">
        <ele>2136</ele>
        <time>2016-10-28T11:17:22Z</time>
      </trkpt>
      <trkpt lat="42.47352" lon="1.56776">
        <ele>2138</ele>
        <time>2016-10-28T11:17:35Z</time>
      </trkpt>
      <trkpt lat="42.47343" lon="1.56776">
        <ele>2140</ele>
        <time>2016-10-28T11:17:52Z</time>
      </trkpt>
      <trkpt lat="42.47335" lon="1.56774">
        <ele>2142</ele>
        <time>2016-10-28T11:18:11Z</time>
      </trkpt>
      <trkpt lat="42.47328" lon="1.5677">
        <ele>2145</ele>
        <time>2016-10-28T11:18:25Z</time>
      </trkpt>
      <trkpt lat="42.47322" lon="1.56771">
        <ele>2148</ele>
        <time>2016-10-28T11:18:42Z</time>
      </trkpt>
      <trkpt lat="42.47315" lon="1.56775">
        <ele>2149</ele>
        <time>2016-10-28T11:19:05Z</time>
      </trkpt>
      <trkpt lat="42.47307" lon="1.56779">
        <ele>2152</ele>
        <time>2016-10-28T11:19:22Z</time>
      </trkpt>
      <trkpt lat="42.47303" lon="1.56781">
        <ele>2154</ele>
        <time>2016-10-28T11:19:37Z</time>
      </trkpt>
      <trkpt lat="42.47297" lon="1.56774">
        <ele>2158</ele>
        <time>2016-10-28T11:20:00Z</time>
      </trkpt>
      <trkpt lat="42.47289" lon="1.56766">
        <ele>2162</ele>
        <time>2016-10-28T11:20:20Z</time>
      </trkpt>
      <trkpt lat="42.47283" lon="1.56756">
        <ele>2165</ele>
        <time>2016-10-28T11:20:35Z</time>
      </trkpt>
      <trkpt lat="42.47277" lon="1.56753">
        <ele>2166</ele>
        <time>2016-10-28T11:20:47Z</time>
      </trkpt>
      <trkpt lat="42.4727" lon="1.56747">
        <ele>2169</ele>
        <time>2016-10-28T11:21:03Z</time>
      </trkpt>
      <trkpt lat="42.47261" lon="1.56742">
        <ele>2171</ele>
        <time>2016-10-28T11:21:17Z</time>
      </trkpt>
      <trkpt lat="42.47252" lon="1.56738">
        <ele>2173</ele>
        <time>2016-10-28T11:21:30Z</time>
      </trkpt>
      <trkpt lat="42.47245" lon="1.56737">
        <ele>2175</ele>
        <time>2016-10-28T11:21:43Z</time>
      </trkpt>
      <trkpt lat="42.47237" lon="1.56736">
        <ele>2177</ele>
        <time>2016-10-28T11:21:56Z</time>
      </trkpt>
      <trkpt lat="42.47228" lon="1.56736">
        <ele>2179</ele>
        <time>2016-10-28T11:22:07Z</time>
      </trkpt>
      <trkpt lat="42.47219" lon="1.56736">
        <ele>2180</ele>
        <time>2016-10-28T11:22:19Z</time>
      </trkpt>
      <trkpt lat="42.4721" lon="1.56738">
        <ele>2181</ele>
        <time>2016-10-28T11:22:30Z</time>
      </trkpt>
      <trkpt lat="42.47201" lon="1.56739">
        <ele>2183</ele>
        <time>2016-10-28T11:22:43Z</time>
      </trkpt>
      <trkpt lat="42.47192" lon="1.56739">
        <ele>2184</ele>
        <time>2016-10-28T11:22:54Z</time>
      </trkpt>
      <trkpt lat="42.47184" lon="1.56743">
        <ele>2186</ele>
        <time>2016-10-28T11:23:04Z</time>
      </trkpt>
      <trkpt lat="42.47175" lon="1.56747">
        <ele>2187</ele>
        <time>2016-10-28T11:23:15Z</time>
      </trkpt>
      <trkpt lat="42.47166" lon="1.56749">
        <ele>2188</ele>
        <time>2016-10-28T11:23:26Z</time>
      </trkpt>
      <trkpt lat="42.47156" lon="1.5675">
        <ele>2189</ele>
        <time>2016-10-28T11:23:37Z</time>
      </trkpt>
      <trkpt lat="42.47148" lon="1.56751">
        <ele>2189</ele>
        <time>2016-10-28T11:23:48Z</time>
      </trkpt>
      <trkpt lat="42.47139" lon="1.56755">
        <ele>2190</ele>
        <time>2016-10-28T11:24:00Z</time>
      </trkpt>
      <trkpt lat="42.47129" lon="1.56756">
        <ele>2190</ele>
        <time>2016-10-28T11:24:12Z</time>
      </trkpt>
      <trkpt lat="42.47119" lon="1.56755">
        <ele>2190</ele>
        <time>2016-10-28T11:24:23Z</time>
      </trkpt>
      <trkpt lat="42.4711" lon="1.56757">
        <ele>2191</ele>
        <time>2016-10-28T11:24:54Z</time>
      </trkpt>
      <trkpt lat="42.47101" lon="1.56761">
        <ele>2190</ele>
        <time>2016-10-28T11:25:05Z</time>
      </trkpt>
      <trkpt lat="42.47091" lon="1.5676">
        <ele>2191</ele>
        <time>2016-10-28T11:25:17Z</time>
      </trkpt>
      <trkpt lat="42.47085" lon="1.56765">
        <ele>2190</ele>
        <time>2016-10-28T11:27:49Z</time>
      </trkpt>
      <trkpt lat="42.47077" lon="1.5677">
        <ele>2190</ele>
        <time>2016-10-28T11:28:09Z</time>
      </trkpt>
      <trkpt lat="42.47067" lon="1.5677">
        <ele>2191</ele>
        <time>2016-10-28T11:28:21Z</time>
      </trkpt>
      <trkpt lat="42.47059" lon="1.56773">
        <ele>2192</ele>
        <time>2016-10-28T11:28:40Z</time>
      </trkpt>
      <trkpt lat="42.47051" lon="1.56773">
        <ele>2193</ele>
        <time>2016-10-28T11:28:51Z</time>
      </trkpt>
      <trkpt lat="42.47043" lon="1.56771">
        <ele>2195</ele>
        <time>2016-10-28T11:29:04Z</time>
      </trkpt>
      <trkpt lat="42.47033" lon="1.56771">
        <ele>2197</ele>
        <time>2016-10-28T11:29:16Z</time>
      </trkpt>
      <trkpt lat="42.47023" lon="1.56776">
        <ele>2198</ele>
        <time>2016-10-28T11:29:27Z</time>
      </trkpt>
      <trkpt lat="42.47014" lon="1.56774">
        <ele>2200</ele>
        <time>2016-10-28T11:29:39Z</time>
      </trkpt>
      <trkpt lat="42.47008" lon="1.56776">
        <ele>2201</ele>
        <time>2016-10-28T11:29:52Z</time>
      </trkpt>
      <trkpt lat="42.46999" lon="1.56777">
        <ele>2202</ele>
        <time>2016-10-28T11:30:04Z</time>
      </trkpt>
      <trkpt lat="42.4699" lon="1.56774">
        <ele>2202</ele>
        <time>2016-10-28T11:30:14Z</time>
      </trkpt>
      <trkpt lat="42.46978" lon="1.5677">
        <ele>2203</ele>
        <time>2016-10-28T11:30:24Z</time>
      </trkpt>
      <trkpt lat="42.46968" lon="1.56766">
        <ele>2204</ele>
        <time>2016-10-28T11:30:33Z</time>
      </trkpt>
      <trkpt lat="42.46958" lon="1.56765">
        <ele>2204</ele>
        <time>2016-10-28T11:30:42Z</time>
      </trkpt>
      <trkpt lat="42.46948" lon="1.56761">
        <ele>2205</ele>
        <time>2016-10-28T11:30:52Z</time>
      </trkpt>
      <trkpt lat="42.46938" lon="1.56757">
        <ele>2205</ele>
        <time>2016-10-28T11:31:02Z</time>
      </trkpt>
      <trkpt lat="42.46928" lon="1.56757">
        <ele>2205</ele>
        <time>2016-10-28T11:31:11Z</time>
      </trkpt>
      <trkpt lat="42.46918" lon="1.56754">
        <ele>2206</ele>
        <time>2016-10-28T11:31:20Z</time>
      </trkpt>
      <trkpt lat="42.46908" lon="1.56752">
        <ele>2206</ele>
        <time>2016-10-28T11:31:28Z</time>
      </trkpt>
      <trkpt lat="42.469" lon="1.56749">
        <ele>2206</ele>
        <time>2016-10-28T11:31:36Z</time>
      </trkpt>
      <trkpt lat="42.46891" lon="1.56747">
        <ele>2208</ele>
        <time>2016-10-28T11:31:45Z</time>
      </trkpt>
      <trkpt lat="42.46883" lon="1.56744">
        <ele>2209</ele>
        <time>2016-10-28T11:31:55Z</time>
      </trkpt>
      <trkpt lat="42.46874" lon="1.56734">
        <ele>2211</ele>
        <time>2016-10-28T11:32:06Z</time>
      </trkpt>
      <trkpt lat="42.46867" lon="1.56725">
        <ele>2213</ele>
        <time>2016-10-28T11:32:16Z</time>
      </trkpt>
      <trkpt lat="42.46863" lon="1.56714">
        <ele>2214</ele>
        <time>2016-10-28T11:32:26Z</time>
      </trkpt>
      <trkpt lat="42.46866" lon="1.56701">
        <ele>2216</ele>
        <time>2016-10-28T11:32:38Z</time>
      </trkpt>
      <trkpt lat="42.4687" lon="1.5669">
        <ele>2218</ele>
        <time>2016-10-28T11:32:50Z</time>
      </trkpt>
      <trkpt lat="42.46875" lon="1.5668">
        <ele>2218</ele>
        <time>2016-10-28T11:33:15Z</time>
      </trkpt>
      <trkpt lat="42.46882" lon="1.56671">
        <ele>2219</ele>
        <time>2016-10-28T11:33:25Z</time>
      </trkpt>
      <trkpt lat="42.46888" lon="1.56661">
        <ele>2221</ele>
        <time>2016-10-28T11:33:35Z</time>
      </trkpt>
      <trkpt lat="42.46895" lon="1.56652">
        <ele>2223</ele>
        <time>2016-10-28T11:33:47Z</time>
      </trkpt>
      <trkpt lat="42.46901" lon="1.56643">
        <ele>2225</ele>
        <time>2016-10-28T11:33:59Z</time>
      </trkpt>
      <trkpt lat="42.46906" lon="1.56631">
        <ele>2227</ele>
        <time>2016-10-28T11:34:11Z</time>
      </trkpt>
      <trkpt lat="42.46911" lon="1.56621">
        <ele>2228</ele>
        <time>2016-10-28T11:34:22Z</time>
      </trkpt>
      <trkpt lat="42.46915" lon="1.56612">
        <ele>2230</ele>
        <time>2016-10-28T11:34:34Z</time>
      </trkpt>
      <trkpt lat="42.46921" lon="1.56603">
        <ele>2231</ele>
        <time>2016-10-28T11:34:46Z</time>
      </trkpt>
      <trkpt lat="42.46927" lon="1.56595">
        <ele>2232</ele>
        <time>2016-10-28T11:34:56Z</time>
      </trkpt>
      <trkpt lat="42.46933" lon="1.56585">
        <ele>2231</ele>
        <time>2016-10-28T11:35:06Z</time>
      </trkpt>
      <trkpt lat="42.46939" lon="1.56576">
        <ele>2232</ele>
        <time>2016-10-28T11:35:16Z</time>
      </trkpt>
      <trkpt lat="42.46946" lon="1.56566">
        <ele>2234</ele>
        <time>2016-10-28T11:35:28Z</time>
      </trkpt>
      <trkpt lat="42.46952" lon="1.56557">
        <ele>2235</ele>
        <time>2016-10-28T11:35:39Z</time>
      </trkpt>
      <trkpt lat="42.46958" lon="1.56545">
        <ele>2235</ele>
        <time>2016-10-28T11:35:50Z</time>
      </trkpt>
      <trkpt lat="42.46961" lon="1.56534">
        <ele>2236</ele>
        <time>2016-10-28T11:36:01Z</time>
      </trkpt>
      <trkpt lat="42.46965" lon="1.56521">
        <ele>2237</ele>
        <time>2016-10-28T11:36:19Z</time>
      </trkpt>
      <trkpt lat="42.46968" lon="1.56509">
        <ele>2240</ele>
        <time>2016-10-28T11:36:32Z</time>
      </trkpt>
      <trkpt lat="42.46972" lon="1.56499">
        <ele>2241</ele>
        <time>2016-10-28T11:36:45Z</time>
      </trkpt>
      <trkpt lat="42.46975" lon="1.5649">
        <ele>2243</ele>
        <time>2016-10-28T11:36:55Z</time>
      </trkpt>
      <trkpt lat="42.46978" lon="1.5648">
        <ele>2245</ele>
        <time>2016-10-28T11:37:10Z</time>
      </trkpt>
      <trkpt lat="42.46981" lon="1.56468">
        <ele>2248</ele>
        <time>2016-10-28T11:37:34Z</time>
      </trkpt>
      <trkpt lat="42.46982" lon="1.56458">
        <ele>2252</ele>
        <time>2016-10-28T11:38:00Z</time>
      </trkpt>
      <trkpt lat="42.46987" lon="1.56447">
        <ele>2256</ele>
        <time>2016-10-28T11:38:23Z</time>
      </trkpt>
      <trkpt lat="42.46992" lon="1.56442">
        <ele>2259</ele>
        <time>2016-10-28T11:38:42Z</time>
      </trkpt>
      <trkpt lat="42.46999" lon="1.56437">
        <ele>2262</ele>
        <time>2016-10-28T11:38:58Z</time>
      </trkpt>
      <trkpt lat="42.47003" lon="1.56432">
        <ele>2264</ele>
        <time>2016-10-28T11:39:15Z</time>
      </trkpt>
      <trkpt lat="42.4701" lon="1.56425">
        <ele>2267</ele>
        <time>2016-10-28T11:39:34Z</time>
      </trkpt>
      <trkpt lat="42.47012" lon="1.56414">
        <ele>2270</ele>
        <time>2016-10-28T11:42:58Z</time>
      </trkpt>
      <trkpt lat="42.4701" lon="1.56405">
        <ele>2271</ele>
        <time>2016-10-28T11:45:43Z</time>
      </trkpt>
      <trkpt lat="42.47007" lon="1.56399">
        <ele>2280</ele>
        <time>2016-10-28T11:48:02Z</time>
      </trkpt>
      <trkpt lat="42.47005" lon="1.56411">
        <ele>2277</ele>
        <time>2016-10-28T12:04:25Z</time>
      </trkpt>
      <trkpt lat="42.47006" lon="1.56422">
        <ele>2275</ele>
        <time>2016-10-28T12:04:35Z</time>
      </trkpt>
      <trkpt lat="42.47003" lon="1.56431">
        <ele>2272</ele>
        <time>2016-10-28T12:04:48Z</time>
      </trkpt>
      <trkpt lat="42.46997" lon="1.5644">
        <ele>2268</ele>
        <time>2016-10-28T12:05:02Z</time>
      </trkpt>
      <trkpt lat="42.4699" lon="1.56447">
        <ele>2265</ele>
        <time>2016-10-28T12:05:17Z</time>
      </trkpt>
      <trkpt lat="42.46984" lon="1.56455">
        <ele>2261</ele>
        <time>2016-10-28T12:05:33Z</time>
      </trkpt>
      <trkpt lat="42.4698" lon="1.56467">
        <ele>2257</ele>
        <time>2016-10-28T12:05:44Z</time>
      </trkpt>
      <trkpt lat="42.46978" lon="1.56478">
        <ele>2253</ele>
        <time>2016-10-28T12:05:57Z</time>
      </trkpt>
      <trkpt lat="42.46975" lon="1.56491">
        <ele>2251</ele>
        <time>2016-10-28T12:06:08Z</time>
      </trkpt>
      <trkpt lat="42.46971" lon="1.56504">
        <ele>2248</ele>
        <time>2016-10-28T12:06:19Z</time>
      </trkpt>
      <trkpt lat="42.46966" lon="1.56517">
        <ele>2245</ele>
        <time>2016-10-28T12:06:30Z</time>
      </trkpt>
      <trkpt lat="42.46963" lon="1.56529">
        <ele>2243</ele>
        <time>2016-10-28T12:06:39Z</time>
      </trkpt>
      <trkpt lat="42.46959" lon="1.56542">
        <ele>2243</ele>
        <time>2016-10-28T12:06:48Z</time>
      </trkpt>
      <trkpt lat="42.46955" lon="1.56554">
        <ele>2242</ele>
        <time>2016-10-28T12:06:56Z</time>
      </trkpt>
      <trkpt lat="42.46949" lon="1.56564">
        <ele>2242</ele>
        <time>2016-10-28T12:07:05Z</time>
      </trkpt>
      <trkpt lat="42.46944" lon="1.56575">
        <ele>2240</ele>
        <time>2016-10-28T12:07:15Z</time>
      </trkpt>
      <trkpt lat="42.46936" lon="1.56586">
        <ele>2240</ele>
        <time>2016-10-28T12:07:23Z</time>
      </trkpt>
      <trkpt lat="42.46929" lon="1.56597">
        <ele>2240</ele>
        <time>2016-10-28T12:07:32Z</time>
      </trkpt>
      <trkpt lat="42.46922" lon="1.56606">
        <ele>2239</ele>
        <time>2016-10-28T12:07:39Z</time>
      </trkpt>
      <trkpt lat="42.46917" lon="1.56617">
        <ele>2237</ele>
        <time>2016-10-28T12:07:48Z</time>
      </trkpt>
      <trkpt lat="42.46911" lon="1.56627">
        <ele>2236</ele>
        <time>2016-10-28T12:07:55Z</time>
      </trkpt>
      <trkpt lat="42.46904" lon="1.56637">
        <ele>2234</ele>
        <time>2016-10-28T12:08:03Z</time>
      </trkpt>
      <trkpt lat="42.46897" lon="1.56648">
        <ele>2231</ele>
        <time>2016-10-28T12:08:12Z</time>
      </trkpt>
      <trkpt lat="42.4689" lon="1.56659">
        <ele>2229</ele>
        <time>2016-10-28T12:08:21Z</time>
      </trkpt>
      <trkpt lat="42.46883" lon="1.56669">
        <ele>2228</ele>
        <time>2016-10-28T12:08:29Z</time>
      </trkpt>
      <trkpt lat="42.46876" lon="1.5668">
        <ele>2227</ele>
        <time>2016-10-28T12:08:38Z</time>
      </trkpt>
      <trkpt lat="42.4687" lon="1.5669">
        <ele>2226</ele>
        <time>2016-10-28T12:08:45Z</time>
      </trkpt>
      <trkpt lat="42.46863" lon="1.56701">
        <ele>2224</ele>
        <time>2016-10-28T12:08:53Z</time>
      </trkpt>
      <trkpt lat="42.46859" lon="1.56713">
        <ele>2221</ele>
        <time>2016-10-28T12:09:02Z</time>
      </trkpt>
      <trkpt lat="42.46852" lon="1.56724">
        <ele>2220</ele>
        <time>2016-10-28T12:09:11Z</time>
      </trkpt>
      <trkpt lat="42.46846" lon="1.56734">
        <ele>2219</ele>
        <time>2016-10-28T12:09:22Z</time>
      </trkpt>
      <trkpt lat="42.46844" lon="1.56747">
        <ele>2221</ele>
        <time>2016-10-28T12:09:33Z</time>
      </trkpt>
      <trkpt lat="42.46846" lon="1.56759">
        <ele>2221</ele>
        <time>2016-10-28T12:09:43Z</time>
      </trkpt>
      <trkpt lat="42.4685" lon="1.56771">
        <ele>2219</ele>
        <time>2016-10-28T12:09:53Z</time>
      </trkpt>
      <trkpt lat="42.46855" lon="1.56786">
        <ele>2217</ele>
        <time>2016-10-28T12:10:04Z</time>
      </trkpt>
      <trkpt lat="42.46862" lon="1.56797">
        <ele>2215</ele>
        <time>2016-10-28T12:10:16Z</time>
      </trkpt>
      <trkpt lat="42.46865" lon="1.5681">
        <ele>2213</ele>
        <time>2016-10-28T12:10:27Z</time>
      </trkpt>
      <trkpt lat="42.46872" lon="1.5682">
        <ele>2211</ele>
        <time>2016-10-28T12:10:38Z</time>
      </trkpt>
      <trkpt lat="42.46874" lon="1.56832">
        <ele>2209</ele>
        <time>2016-10-28T12:10:49Z</time>
      </trkpt>
      <trkpt lat="42.46875" lon="1.56845">
        <ele>2207</ele>
        <time>2016-10-28T12:10:59Z</time>
      </trkpt>
      <trkpt lat="42.46876" lon="1.56858">
        <ele>2205</ele>
        <time>2016-10-28T12:11:10Z</time>
      </trkpt>
      <trkpt lat="42.46876" lon="1.56873">
        <ele>2204</ele>
        <time>2016-10-28T12:11:24Z</time>
      </trkpt>
      <trkpt lat="42.46875" lon="1.56885">
        <ele>2202</ele>
        <time>2016-10-28T12:11:53Z</time>
      </trkpt>
      <trkpt lat="42.46879" lon="1.56896">
        <ele>2201</ele>
        <time>2016-10-28T12:12:21Z</time>
      </trkpt>
      <trkpt lat="42.46886" lon="1.56905">
        <ele>2201</ele>
        <time>2016-10-28T12:12:31Z</time>
      </trkpt>
      <trkpt lat="42.46892" lon="1.56916">
        <ele>2201</ele>
        <time>2016-10-28T12:12:41Z</time>
      </trkpt>
      <trkpt lat="42.46899" lon="1.56926">
        <ele>2201</ele>
        <time>2016-10-28T12:12:49Z</time>
      </trkpt>
      <trkpt lat="42.46905" lon="1.56936">
        <ele>2200</ele>
        <time>2016-10-28T12:12:57Z</time>
      </trkpt>
      <trkpt lat="42.4691" lon="1.56949">
        <ele>2201</ele>
        <time>2016-10-28T12:13:05Z</time>
      </trkpt>
      <trkpt lat="42.46916" lon="1.56961">
        <ele>2201</ele>
        <time>2016-10-28T12:13:13Z</time>
      </trkpt>
      <trkpt lat="42.46922" lon="1.5697">
        <ele>2201</ele>
        <time>2016-10-28T12:13:21Z</time>
      </trkpt>
      <trkpt lat="42.46927" lon="1.56983">
        <ele>2200</ele>
        <time>2016-10-28T12:13:33Z</time>
      </trkpt>
      <trkpt lat="42.46929" lon="1.56999">
        <ele>2200</ele>
        <time>2016-10-28T12:14:03Z</time>
      </trkpt>
      <trkpt lat="42.46929" lon="1.57008">
        <ele>2200</ele>
        <time>2016-10-28T12:14:26Z</time>
      </trkpt>
      <trkpt lat="42.46933" lon="1.57015">
        <ele>2200</ele>
        <time>2016-10-28T12:15:10Z</time>
      </trkpt>
      <trkpt lat="42.46941" lon="1.57019">
        <ele>2200</ele>
        <time>2016-10-28T12:15:19Z</time>
      </trkpt>
      <trkpt lat="42.46948" lon="1.57026">
        <ele>2200</ele>
        <time>2016-10-28T12:15:27Z</time>
      </trkpt>
      <trkpt lat="42.46957" lon="1.57033">
        <ele>2199</ele>
        <time>2016-10-28T12:15:35Z</time>
      </trkpt>
      <trkpt lat="42.46964" lon="1.57043">
        <ele>2198</ele>
        <time>2016-10-28T12:15:43Z</time>
      </trkpt>
      <trkpt lat="42.46972" lon="1.57051">
        <ele>2198</ele>
        <time>2016-10-28T12:15:51Z</time>
      </trkpt>
      <trkpt lat="42.46982" lon="1.57056">
        <ele>2198</ele>
        <time>2016-10-28T12:15:59Z</time>
      </trkpt>
      <trkpt lat="42.4699" lon="1.57064">
        <ele>2198</ele>
        <time>2016-10-28T12:16:06Z</time>
      </trkpt>
      <trkpt lat="42.46999" lon="1.57071">
        <ele>2198</ele>
        <time>2016-10-28T12:16:14Z</time>
      </trkpt>
      <trkpt lat="42.47008" lon="1.57078">
        <ele>2199</ele>
        <time>2016-10-28T12:16:21Z</time>
      </trkpt>
      <trkpt lat="42.47016" lon="1.57084">
        <ele>2200</ele>
        <time>2016-10-28T12:16:29Z</time>
      </trkpt>
      <trkpt lat="42.47024" lon="1.57089">
        <ele>2201</ele>
        <time>2016-10-28T12:16:38Z</time>
      </trkpt>
      <trkpt lat="42.47034" lon="1.57094">
        <ele>2202</ele>
        <time>2016-10-28T12:16:48Z</time>
      </trkpt>
      <trkpt lat="42.47043" lon="1.57098">
        <ele>2204</ele>
        <time>2016-10-28T12:16:57Z</time>
      </trkpt>
      <trkpt lat="42.47051" lon="1.57106">
        <ele>2204</ele>
        <time>2016-10-28T12:17:05Z</time>
      </trkpt>
      <trkpt lat="42.4706" lon="1.57108">
        <ele>2205</ele>
        <time>2016-10-28T12:17:14Z</time>
      </trkpt>
      <trkpt lat="42.47071" lon="1.57107">
        <ele>2205</ele>
        <time>2016-10-28T12:17:24Z</time>
      </trkpt>
      <trkpt lat="42.47082" lon="1.57107">
        <ele>2207</ele>
        <time>2016-10-28T12:17:33Z</time>
      </trkpt>
      <trkpt lat="42.47091" lon="1.57105">
        <ele>2207</ele>
        <time>2016-10-28T12:17:41Z</time>
      </trkpt>
      <trkpt lat="42.47101" lon="1.57105">
        <ele>2209</ele>
        <time>2016-10-28T12:17:50Z</time>
      </trkpt>
      <trkpt lat="42.4711" lon="1.57105">
        <ele>2211</ele>
        <time>2016-10-28T12:18:00Z</time>
      </trkpt>
      <trkpt lat="42.47119" lon="1.57106">
        <ele>2213</ele>
        <time>2016-10-28T12:18:10Z</time>
      </trkpt>
      <trkpt lat="42.4713" lon="1.57106">
        <ele>2216</ele>
        <time>2016-10-28T12:18:25Z</time>
      </trkpt>
      <trkpt lat="42.47139" lon="1.57111">
        <ele>2218</ele>
        <time>2016-10-28T12:18:39Z</time>
      </trkpt>
      <trkpt lat="42.4715" lon="1.57119">
        <ele>2221</ele>
        <time>2016-10-28T12:18:57Z</time>
      </trkpt>
      <trkpt lat="42.47155" lon="1.57131">
        <ele>2223</ele>
        <time>2016-10-28T12:19:10Z</time>
      </trkpt>
      <trkpt lat="42.4716" lon="1.57143">
        <ele>2225</ele>
        <time>2016-10-28T12:19:26Z</time>
      </trkpt>
      <trkpt lat="42.4716" lon="1.57158">
        <ele>2225</ele>
        <time>2016-10-28T12:19:41Z</time>
      </trkpt>
      <trkpt lat="42.47162" lon="1.57172">
        <ele>2226</ele>
        <time>2016-10-28T12:19:55Z</time>
      </trkpt>
      <trkpt lat="42.47166" lon="1.57181">
        <ele>2227</ele>
        <time>2016-10-28T12:20:08Z</time>
      </trkpt>
      <trkpt lat="42.47171" lon="1.5719">
        <ele>2227</ele>
        <time>2016-10-28T12:20:19Z</time>
      </trkpt>
      <trkpt lat="42.47176" lon="1.57201">
        <ele>2228</ele>
        <time>2016-10-28T12:20:31Z</time>
      </trkpt>
      <trkpt lat="42.47182" lon="1.57214">
        <ele>2228</ele>
        <time>2016-10-28T12:20:41Z</time>
      </trkpt>
      <trkpt lat="42.47188" lon="1.57226">
        <ele>2228</ele>
        <time>2016-10-28T12:20:52Z</time>
      </trkpt>
      <trkpt lat="42.47195" lon="1.57237">
        <ele>2230</ele>
        <time>2016-10-28T12:21:04Z</time>
      </trkpt>
      <trkpt lat="42.47202" lon="1.57246">
        <ele>2230</ele>
        <time>2016-10-28T12:21:15Z</time>
      </trkpt>
      <trkpt lat="42.4721" lon="1.57252">
        <ele>2232</ele>
        <time>2016-10-28T12:21:27Z</time>
      </trkpt>
      <trkpt lat="42.47217" lon="1.5726">
        <ele>2232</ele>
        <time>2016-10-28T12:21:39Z</time>
      </trkpt>
      <trkpt lat="42.47225" lon="1.57268">
        <ele>2235</ele>
        <time>2016-10-28T12:21:52Z</time>
      </trkpt>
      <trkpt lat="42.47233" lon="1.57276">
        <ele>2236</ele>
        <time>2016-10-28T12:22:06Z</time>
      </trkpt>
      <trkpt lat="42.47239" lon="1.57282">
        <ele>2236</ele>
        <time>2016-10-28T12:23:19Z</time>
      </trkpt>
      <trkpt lat="42.47247" lon="1.57292">
        <ele>2235</ele>
        <time>2016-10-28T12:23:32Z</time>
      </trkpt>
      <trkpt lat="42.47255" lon="1.573">
        <ele>2234</ele>
        <time>2016-10-28T12:23:44Z</time>
      </trkpt>
      <trkpt lat="42.47264" lon="1.57308">
        <ele>2233</ele>
        <time>2016-10-28T12:23:55Z</time>
      </trkpt>
      <trkpt lat="42.47272" lon="1.57318">
        <ele>2232</ele>
        <time>2016-10-28T12:24:08Z</time>
      </trkpt>
      <trkpt lat="42.47282" lon="1.57321">
        <ele>2231</ele>
        <time>2016-10-28T12:24:21Z</time>
      </trkpt>
      <trkpt lat="42.47292" lon="1.57327">
        <ele>2231</ele>
        <time>2016-10-28T12:24:32Z</time>
      </trkpt>
      <trkpt lat="42.47301" lon="1.57335">
        <ele>2232</ele>
        <time>2016-10-28T12:24:44Z</time>
      </trkpt>
      <trkpt lat="42.47313" lon="1.57342">
        <ele>2232</ele>
        <time>2016-10-28T12:25:36Z</time>
      </trkpt>
      <trkpt lat="42.47324" lon="1.57345">
        <ele>2232</ele>
        <time>2016-10-28T12:25:47Z</time>
      </trkpt>
      <trkpt lat="42.47335" lon="1.57348">
        <ele>2233</ele>
        <time>2016-10-28T12:25:57Z</time>
      </trkpt>
      <trkpt lat="42.47345" lon="1.5735">
        <ele>2232</ele>
        <time>2016-10-28T12:26:08Z</time>
      </trkpt>
      <trkpt lat="42.47356" lon="1.57351">
        <ele>2232</ele>
        <time>2016-10-28T12:26:18Z</time>
      </trkpt>
      <trkpt lat="42.47368" lon="1.57353">
        <ele>2232</ele>
        <time>2016-10-28T12:26:28Z</time>
      </trkpt>
      <trkpt lat="42.47379" lon="1.57355">
        <ele>2232</ele>
        <time>2016-10-28T12:26:38Z</time>
      </trkpt>
      <trkpt lat="42.4739" lon="1.57356">
        <ele>2231</ele>
        <time>2016-10-28T12:26:48Z</time>
      </trkpt>
      <trkpt lat="42.474" lon="1.57357">
        <ele>2232</ele>
        <time>2016-10-28T12:26:59Z</time>
      </trkpt>
      <trkpt lat="42.47413" lon="1.57356">
        <ele>2233</ele>
        <time>2016-10-28T12:27:10Z</time>
      </trkpt>
      <trkpt lat="42.47424" lon="1.57358">
        <ele>2234</ele>
        <time>2016-10-28T12:27:20Z</time>
      </trkpt>
      <trkpt lat="42.47437" lon="1.57362">
        <ele>2235</ele>
        <time>2016-10-28T12:27:31Z</time>
      </trkpt>
      <trkpt lat="42.47446" lon="1.5737">
        <ele>2237</ele>
        <time>2016-10-28T12:27:44Z</time>
      </trkpt>
      <trkpt lat="42.47457" lon="1.57373">
        <ele>2236</ele>
        <time>2016-10-28T12:27:57Z</time>
      </trkpt>
      <trkpt lat="42.47468" lon="1.57381">
        <ele>2237</ele>
        <time>2016-10-28T12:28:10Z</time>
      </trkpt>
      <trkpt lat="42.47478" lon="1.57386">
        <ele>2240</ele>
        <time>2016-10-28T12:28:25Z</time>
      </trkpt>
      <trkpt lat="42.47483" lon="1.57399">
        <ele>2241</ele>
        <time>2016-10-28T12:28:52Z</time>
      </trkpt>
      <trkpt lat="42.4749" lon="1.5741">
        <ele>2241</ele>
        <time>2016-10-28T12:29:03Z</time>
      </trkpt>
      <trkpt lat="42.47497" lon="1.5742">
        <ele>2242</ele>
        <time>2016-10-28T12:29:11Z</time>
      </trkpt>
      <trkpt lat="42.47504" lon="1.5743">
        <ele>2242</ele>
        <time>2016-10-28T12:29:20Z</time>
      </trkpt>
      <trkpt lat="42.47506" lon="1.57431">
        <ele>2242</ele>
        <time>2016-10-28T12:29:55Z</time>
      </trkpt>
      <trkpt lat="42.4751" lon="1.57438">
        <ele>2241</ele>
        <time>2016-10-28T12:30:06Z</time>
      </trkpt>
      <trkpt lat="42.47514" lon="1.57449">
        <ele>2240</ele>
        <time>2016-10-28T12:30:15Z</time>
      </trkpt>
      <trkpt lat="42.47519" lon="1.57458">
        <ele>2241</ele>
        <time>2016-10-28T12:30:28Z</time>
      </trkpt>
      <trkpt lat="42.47523" lon="1.5746">
        <ele>2239</ele>
        <time>2016-10-28T12:30:43Z</time>
      </trkpt>
      <trkpt lat="42.47526" lon="1.57464">
        <ele>2239</ele>
        <time>2016-10-28T12:31:33Z</time>
      </trkpt>
      <trkpt lat="42.4753" lon="1.5747">
        <ele>2236</ele>
        <time>2016-10-28T12:31:45Z</time>
      </trkpt>
      <trkpt lat="42.4754" lon="1.57469">
        <ele>2236</ele>
        <time>2016-10-28T12:32:12Z</time>
      </trkpt>
      <trkpt lat="42.47542" lon="1.57469">
        <ele>2236</ele>
        <time>2016-10-28T12:32:53Z</time>
      </trkpt>
      <trkpt lat="42.47544" lon="1.57465">
        <ele>2236</ele>
        <time>2016-10-28T12:37:23Z</time>
      </trkpt>
      <trkpt lat="42.47552" lon="1.57461">
        <ele>2236</ele>
        <time>2016-10-28T12:37:33Z</time>
      </trkpt>
      <trkpt lat="42.47562" lon="1.57455">
        <ele>2236</ele>
        <time>2016-10-28T12:37:44Z</time>
      </trkpt>
      <trkpt lat="42.47568" lon="1.57449">
        <ele>2236</ele>
        <time>2016-10-28T12:38:53Z</time>
      </trkpt>
      <trkpt lat="42.47573" lon="1.57442">
        <ele>2234</ele>
        <time>2016-10-28T12:39:02Z</time>
      </trkpt>
      <trkpt lat="42.4758" lon="1.57436">
        <ele>2233</ele>
        <time>2016-10-28T12:39:13Z</time>
      </trkpt>
      <trkpt lat="42.47588" lon="1.57428">
        <ele>2231</ele>
        <time>2016-10-28T12:39:29Z</time>
      </trkpt>
      <trkpt lat="42.4759" lon="1.57417">
        <ele>2228</ele>
        <time>2016-10-28T12:39:43Z</time>
      </trkpt>
      <trkpt lat="42.47599" lon="1.57413">
        <ele>2224</ele>
        <time>2016-10-28T12:40:01Z</time>
      </trkpt>
      <trkpt lat="42.47605" lon="1.57401">
        <ele>2220</ele>
        <time>2016-10-28T12:40:24Z</time>
      </trkpt>
      <trkpt lat="42.47614" lon="1.57394">
        <ele>2216</ele>
        <time>2016-10-28T12:40:41Z</time>
      </trkpt>
      <trkpt lat="42.47616" lon="1.57386">
        <ele>2214</ele>
        <time>2016-10-28T12:40:57Z</time>
      </trkpt>
      <trkpt lat="42.47627" lon="1.57378">
        <ele>2211</ele>
        <time>2016-10-28T12:41:15Z</time>
      </trkpt>
      <trkpt lat="42.47638" lon="1.57373">
        <ele>2208</ele>
        <time>2016-10-28T12:41:33Z</time>
      </trkpt>
      <trkpt lat="42.47646" lon="1.5737">
        <ele>2206</ele>
        <time>2016-10-28T12:41:48Z</time>
      </trkpt>
      <trkpt lat="42.47653" lon="1.57364">
        <ele>2206</ele>
        <time>2016-10-28T12:42:01Z</time>
      </trkpt>
      <trkpt lat="42.47658" lon="1.57365">
        <ele>2206</ele>
        <time>2016-10-28T12:42:14Z</time>
      </trkpt>
      <trkpt lat="42.47665" lon="1.57361">
        <ele>2205</ele>
        <time>2016-10-28T12:42:25Z</time>
      </trkpt>
      <trkpt lat="42.47673" lon="1.57368">
        <ele>2204</ele>
        <time>2016-10-28T12:42:39Z</time>
      </trkpt>
      <trkpt lat="42.47681" lon="1.57371">
        <ele>2205</ele>
        <time>2016-10-28T12:42:58Z</time>
      </trkpt>
      <trkpt lat="42.4769" lon="1.57363">
        <ele>2205</ele>
        <time>2016-10-28T12:43:12Z</time>
      </trkpt>
      <trkpt lat="42.47699" lon="1.57366">
        <ele>2205</ele>
        <time>2016-10-28T12:43:23Z</time>
      </trkpt>
      <trkpt lat="42.4771" lon="1.57368">
        <ele>2205</ele>
        <time>2016-10-28T12:43:32Z</time>
      </trkpt>
      <trkpt lat="42.47726" lon="1.57377">
        <ele>2206</ele>
        <time>2016-10-28T12:44:03Z</time>
      </trkpt>
      <trkpt lat="42.47734" lon="1.57391">
        <ele>2206</ele>
        <time>2016-10-28T12:44:14Z</time>
      </trkpt>
      <trkpt lat="42.47744" lon="1.57404">
        <ele>2205</ele>
        <time>2016-10-28T12:44:24Z</time>
      </trkpt>
      <trkpt lat="42.47751" lon="1.57417">
        <ele>2204</ele>
        <time>2016-10-28T12:44:33Z</time>
      </trkpt>
      <trkpt lat="42.47754" lon="1.57434">
        <ele>2203</ele>
        <time>2016-10-28T12:44:44Z</time>
      </trkpt>
      <trkpt lat="42.47754" lon="1.57447">
        <ele>2202</ele>
        <time>2016-10-28T12:44:52Z</time>
      </trkpt>
      <trkpt lat="42.47751" lon="1.5746">
        <ele>2200</ele>
        <time>2016-10-28T12:45:03Z</time>
      </trkpt>
      <trkpt lat="42.47751" lon="1.57477">
        <ele>2198</ele>
        <time>2016-10-28T12:45:13Z</time>
      </trkpt>
      <trkpt lat="42.47753" lon="1.57491">
        <ele>2195</ele>
        <time>2016-10-28T12:45:23Z</time>
      </trkpt>
      <trkpt lat="42.47757" lon="1.57503">
        <ele>2193</ele>
        <time>2016-10-28T12:45:32Z</time>
      </trkpt>
      <trkpt lat="42.4776" lon="1.57515">
        <ele>2191</ele>
        <time>2016-10-28T12:45:40Z</time>
      </trkpt>
      <trkpt lat="42.47764" lon="1.57527">
        <ele>2191</ele>
        <time>2016-10-28T12:45:47Z</time>
      </trkpt>
      <trkpt lat="42.47766" lon="1.5754">
        <ele>2190</ele>
        <time>2016-10-28T12:45:55Z</time>
      </trkpt>
      <trkpt lat="42.47769" lon="1.57553">
        <ele>2190</ele>
        <time>2016-10-28T12:46:02Z</time>
      </trkpt>
      <trkpt lat="42.47773" lon="1.57565">
        <ele>2190</ele>
        <time>2016-10-28T12:46:11Z</time>
      </trkpt>
      <trkpt lat="42.47775" lon="1.57578">
        <ele>2190</ele>
        <time>2016-10-28T12:46:20Z</time>
      </trkpt>
      <trkpt lat="42.47778" lon="1.57592">
        <ele>2189</ele>
        <time>2016-10-28T12:46:28Z</time>
      </trkpt>
      <trkpt lat="42.4778" lon="1.57606">
        <ele>2189</ele>
        <time>2016-10-28T12:46:36Z</time>
      </trkpt>
      <trkpt lat="42.47783" lon="1.57619">
        <ele>2189</ele>
        <time>2016-10-28T12:46:45Z</time>
      </trkpt>
      <trkpt lat="42.47785" lon="1.57634">
        <ele>2189</ele>
        <time>2016-10-28T12:46:54Z</time>
      </trkpt>
      <trkpt lat="42.47788" lon="1.57647">
        <ele>2190</ele>
        <time>2016-10-28T12:47:02Z</time>
      </trkpt>
      <trkpt lat="42.47791" lon="1.57659">
        <ele>2190</ele>
        <time>2016-10-28T12:47:10Z</time>
      </trkpt>
      <trkpt lat="42.47794" lon="1.57672">
        <ele>2191</ele>
        <time>2016-10-28T12:47:18Z</time>
      </trkpt>
      <trkpt lat="42.47799" lon="1.57682">
        <ele>2191</ele>
        <time>2016-10-28T12:47:27Z</time>
      </trkpt>
      <trkpt lat="42.47806" lon="1.57692">
        <ele>2190</ele>
        <time>2016-10-28T12:47:35Z</time>
      </trkpt>
      <trkpt lat="42.47812" lon="1.577">
        <ele>2191</ele>
        <time>2016-10-28T12:47:44Z</time>
      </trkpt>
      <trkpt lat="42.4782" lon="1.5771">
        <ele>2191</ele>
        <time>2016-10-28T12:47:55Z</time>
      </trkpt>
      <trkpt lat="42.47829" lon="1.57716">
        <ele>2191</ele>
        <time>2016-10-28T12:48:12Z</time>
      </trkpt>
      <trkpt lat="42.47838" lon="1.57722">
        <ele>2192</ele>
        <time>2016-10-28T12:48:22Z</time>
      </trkpt>
      <trkpt lat="42.47847" lon="1.57728">
        <ele>2192</ele>
        <time>2016-10-28T12:48:34Z</time>
      </trkpt>
      <trkpt lat="42.47855" lon="1.5773">
        <ele>2191</ele>
        <time>2016-10-28T12:48:44Z</time>
      </trkpt>
      <trkpt lat="42.47864" lon="1.57731">
        <ele>2191</ele>
        <time>2016-10-28T12:48:57Z</time>
      </trkpt>
      <trkpt lat="42.47874" lon="1.57732">
        <ele>2193</ele>
        <time>2016-10-28T12:49:12Z</time>
      </trkpt>
      <trkpt lat="42.47879" lon="1.57742">
        <ele>2195</ele>
        <time>2016-10-28T12:49:25Z</time>
      </trkpt>
      <trkpt lat="42.47887" lon="1.5775">
        <ele>2196</ele>
        <time>2016-10-28T12:49:37Z</time>
      </trkpt>
      <trkpt lat="42.47895" lon="1.57759">
        <ele>2198</ele>
        <time>2016-10-28T12:49:48Z</time>
      </trkpt>
      <trkpt lat="42.47904" lon="1.57763">
        <ele>2198</ele>
        <time>2016-10-28T12:49:58Z</time>
      </trkpt>
      <trkpt lat="42.47912" lon="1.57772">
        <ele>2198</ele>
        <time>2016-10-28T12:50:09Z</time>
      </trkpt>
      <trkpt lat="42.47921" lon="1.57771">
        <ele>2199</ele>
        <time>2016-10-28T12:50:21Z</time>
      </trkpt>
      <trkpt lat="42.4793" lon="1.57775">
        <ele>2201</ele>
        <time>2016-10-28T12:50:33Z</time>
      </trkpt>
      <trkpt lat="42.47936" lon="1.57784">
        <ele>2202</ele>
        <time>2016-10-28T12:50:44Z</time>
      </trkpt>
      <trkpt lat="42.47943" lon="1.57792">
        <ele>2203</ele>
        <time>2016-10-28T12:50:58Z</time>
      </trkpt>
      <trkpt lat="42.47949" lon="1.57803">
        <ele>2204</ele>
        <time>2016-10-28T12:51:10Z</time>
      </trkpt>
      <trkpt lat="42.47956" lon="1.57812">
        <ele>2205</ele>
        <time>2016-10-28T12:51:37Z</time>
      </trkpt>
      <trkpt lat="42.47963" lon="1.57815">
        <ele>2206</ele>
        <time>2016-10-28T12:51:47Z</time>
      </trkpt>
      <trkpt lat="42.47968" lon="1.57816">
        <ele>2205</ele>
        <time>2016-10-28T12:53:15Z</time>
      </trkpt>
      <trkpt lat="42.47971" lon="1.57819">
        <ele>2206</ele>
        <time>2016-10-28T12:53:32Z</time>
      </trkpt>
      <trkpt lat="42.47973" lon="1.57806">
        <ele>2202</ele>
        <time>2016-10-28T13:08:47Z</time>
      </trkpt>
      <trkpt lat="42.47976" lon="1.57792">
        <ele>2201</ele>
        <time>2016-10-28T13:08:56Z</time>
      </trkpt>
      <trkpt lat="42.47979" lon="1.57778">
        <ele>2201</ele>
        <time>2016-10-28T13:09:04Z</time>
      </trkpt>
      <trkpt lat="42.47983" lon="1.57767">
        <ele>2202</ele>
        <time>2016-10-28T13:09:12Z</time>
      </trkpt>
      <trkpt lat="42.47987" lon="1.57754">
        <ele>2202</ele>
        <time>2016-10-28T13:09:21Z</time>
      </trkpt>
      <trkpt lat="42.47992" lon="1.57742">
        <ele>2202</ele>
        <time>2016-10-28T13:09:30Z</time>
      </trkpt>
      <trkpt lat="42.47999" lon="1.57733">
        <ele>2202</ele>
        <time>2016-10-28T13:09:39Z</time>
      </trkpt>
      <trkpt lat="42.48007" lon="1.57725">
        <ele>2202</ele>
        <time>2016-10-28T13:09:49Z</time>
      </trkpt>
      <trkpt lat="42.48014" lon="1.57716">
        <ele>2202</ele>
        <time>2016-10-28T13:09:58Z</time>
      </trkpt>
      <trkpt lat="42.48021" lon="1.57708">
        <ele>2201</ele>
        <time>2016-10-28T13:10:07Z</time>
      </trkpt>
      <trkpt lat="42.48027" lon="1.57695">
        <ele>2200</ele>
        <time>2016-10-28T13:10:16Z</time>
      </trkpt>
      <trkpt lat="42.48032" lon="1.57684">
        <ele>2198</ele>
        <time>2016-10-28T13:10:25Z</time>
      </trkpt>
      <trkpt lat="42.48039" lon="1.57674">
        <ele>2198</ele>
        <time>2016-10-28T13:10:34Z</time>
      </trkpt>
      <trkpt lat="42.48047" lon="1.57662">
        <ele>2197</ele>
        <time>2016-10-28T13:10:42Z</time>
      </trkpt>
      <trkpt lat="42.48052" lon="1.57652">
        <ele>2197</ele>
        <time>2016-10-28T13:10:50Z</time>
      </trkpt>
      <trkpt lat="42.48057" lon="1.5764">
        <ele>2197</ele>
        <time>2016-10-28T13:10:58Z</time>
      </trkpt>
      <trkpt lat="42.48062" lon="1.57629">
        <ele>2196</ele>
        <time>2016-10-28T13:11:05Z</time>
      </trkpt>
      <trkpt lat="42.48066" lon="1.57616">
        <ele>2196</ele>
        <time>2016-10-28T13:11:14Z</time>
      </trkpt>
      <trkpt lat="42.48069" lon="1.57604">
        <ele>2196</ele>
        <time>2016-10-28T13:11:23Z</time>
      </trkpt>
      <trkpt lat="42.48074" lon="1.57589">
        <ele>2197</ele>
        <time>2016-10-28T13:11:33Z</time>
      </trkpt>
      <trkpt lat="42.48081" lon="1.57578">
        <ele>2198</ele>
        <time>2016-10-28T13:12:26Z</time>
      </trkpt>
      <trkpt lat="42.48089" lon="1.57573">
        <ele>2199</ele>
        <time>2016-10-28T13:12:36Z</time>
      </trkpt>
      <trkpt lat="42.48098" lon="1.57571">
        <ele>2200</ele>
        <time>2016-10-28T13:12:46Z</time>
      </trkpt>
      <trkpt lat="42.48107" lon="1.57569">
        <ele>2201</ele>
        <time>2016-10-28T13:12:55Z</time>
      </trkpt>
      <trkpt lat="42.48116" lon="1.5756">
        <ele>2203</ele>
        <time>2016-10-28T13:13:24Z</time>
      </trkpt>
      <trkpt lat="42.48116" lon="1.57552">
        <ele>2205</ele>
        <time>2016-10-28T13:13:39Z</time>
      </trkpt>
      <trkpt lat="42.48119" lon="1.5754">
        <ele>2206</ele>
        <time>2016-10-28T13:13:50Z</time>
      </trkpt>
      <trkpt lat="42.4812" lon="1.57528">
        <ele>2207</ele>
        <time>2016-10-28T13:14:02Z</time>
      </trkpt>
      <trkpt lat="42.48121" lon="1.57514">
        <ele>2207</ele>
        <time>2016-10-28T13:14:11Z</time>
      </trkpt>
      <trkpt lat="42.48125" lon="1.57502">
        <ele>2206</ele>
        <time>2016-10-28T13:14:19Z</time>
      </trkpt>
      <trkpt lat="42.48126" lon="1.57489">
        <ele>2205</ele>
        <time>2016-10-28T13:14:26Z</time>
      </trkpt>
      <trkpt lat="42.48131" lon="1.57477">
        <ele>2205</ele>
        <time>2016-10-28T13:14:38Z</time>
      </trkpt>
      <trkpt lat="42.48137" lon="1.57467">
        <ele>2205</ele>
        <time>2016-10-28T13:14:50Z</time>
      </trkpt>
      <trkpt lat="42.48139" lon="1.57457">
        <ele>2204</ele>
        <time>2016-10-28T13:15:13Z</time>
      </trkpt>
      <trkpt lat="42.48142" lon="1.57444">
        <ele>2204</ele>
        <time>2016-10-28T13:15:24Z</time>
      </trkpt>
      <trkpt lat="42.48145" lon="1.5743">
        <ele>2204</ele>
        <time>2016-10-28T13:15:33Z</time>
      </trkpt>
      <trkpt lat="42.48149" lon="1.57415">
        <ele>2202</ele>
        <time>2016-10-28T13:15:42Z</time>
      </trkpt>
      <trkpt lat="42.48152" lon="1.57402">
        <ele>2201</ele>
        <time>2016-10-28T13:15:50Z</time>
      </trkpt>
      <trkpt lat="42.48154" lon="1.5739">
        <ele>2201</ele>
        <time>2016-10-28T13:15:58Z</time>
      </trkpt>
      <trkpt lat="42.48157" lon="1.57376">
        <ele>2200</ele>
        <time>2016-10-28T13:16:06Z</time>
      </trkpt>
      <trkpt lat="42.48159" lon="1.57364">
        <ele>2199</ele>
        <time>2016-10-28T13:16:14Z</time>
      </trkpt>
      <trkpt lat="42.48162" lon="1.57351">
        <ele>2198</ele>
        <time>2016-10-28T13:16:22Z</time>
      </trkpt>
      <trkpt lat="42.48166" lon="1.57338">
        <ele>2197</ele>
        <time>2016-10-28T13:16:31Z</time>
      </trkpt>
      <trkpt lat="42.48169" lon="1.57325">
        <ele>2196</ele>
        <time>2016-10-28T13:16:39Z</time>
      </trkpt>
      <trkpt lat="42.48172" lon="1.57313">
        <ele>2195</ele>
        <time>2016-10-28T13:16:46Z</time>
      </trkpt>
      <trkpt lat="42.48175" lon="1.573">
        <ele>2195</ele>
        <time>2016-10-28T13:16:55Z</time>
      </trkpt>
      <trkpt lat="42.48178" lon="1.57288">
        <ele>2194</ele>
        <time>2016-10-28T13:17:06Z</time>
      </trkpt>
      <trkpt lat="42.48179" lon="1.57273">
        <ele>2194</ele>
        <time>2016-10-28T13:17:32Z</time>
      </trkpt>
      <trkpt lat="42.48177" lon="1.57264">
        <ele>2191</ele>
        <time>2016-10-28T13:17:46Z</time>
      </trkpt>
      <trkpt lat="42.48178" lon="1.5725">
        <ele>2190</ele>
        <time>2016-10-28T13:17:59Z</time>
      </trkpt>
      <trkpt lat="42.48181" lon="1.57235">
        <ele>2190</ele>
        <time>2016-10-28T13:18:10Z</time>
      </trkpt>
      <trkpt lat="42.48182" lon="1.5722">
        <ele>2189</ele>
        <time>2016-10-28T13:18:22Z</time>
      </trkpt>
      <trkpt lat="42.48188" lon="1.57202">
        <ele>2190</ele>
        <time>2016-10-28T13:18:37Z</time>
      </trkpt>
      <trkpt lat="42.48194" lon="1.57185">
        <ele>2190</ele>
        <time>2016-10-28T13:18:52Z</time>
      </trkpt>
      <trkpt lat="42.48204" lon="1.57171">
        <ele>2190</ele>
        <time>2016-10-28T13:19:04Z</time>
      </trkpt>
      <trkpt lat="42.48214" lon="1.57161">
        <ele>2191</ele>
        <time>2016-10-28T13:19:17Z</time>
      </trkpt>
      <trkpt lat="42.48223" lon="1.57148">
        <ele>2190</ele>
        <time>2016-10-28T13:19:30Z</time>
      </trkpt>
      <trkpt lat="42.48231" lon="1.57138">
        <ele>2190</ele>
        <time>2016-10-28T13:19:41Z</time>
      </trkpt>
      <trkpt lat="42.48238" lon="1.57126">
        <ele>2190</ele>
        <time>2016-10-28T13:19:52Z</time>
      </trkpt>
      <trkpt lat="42.48249" lon="1.57117">
        <ele>2190</ele>
        <time>2016-10-28T13:20:04Z</time>
      </trkpt>
      <trkpt lat="42.48257" lon="1.57105">
        <ele>2191</ele>
        <time>2016-10-28T13:20:17Z</time>
      </trkpt>
      <trkpt lat="42.48264" lon="1.57091">
        <ele>2191</ele>
        <time>2016-10-28T13:20:29Z</time>
      </trkpt>
      <trkpt lat="42.48274" lon="1.57081">
        <ele>2192</ele>
        <time>2016-10-28T13:20:43Z</time>
      </trkpt>
      <trkpt lat="42.48284" lon="1.57076">
        <ele>2193</ele>
        <time>2016-10-28T13:20:53Z</time>
      </trkpt>
      <trkpt lat="42.48297" lon="1.57076">
        <ele>2192</ele>
        <time>2016-10-28T13:21:04Z</time>
      </trkpt>
      <trkpt lat="42.48307" lon="1.57072">
        <ele>2192</ele>
        <time>2016-10-28T13:21:16Z</time>
      </trkpt>
      <trkpt lat="42.48317" lon="1.57072">
        <ele>2191</ele>
        <time>2016-10-28T13:21:27Z</time>
      </trkpt>
      <trkpt lat="42.48328" lon="1.57075">
        <ele>2190</ele>
        <time>2016-10-28T13:21:40Z</time>
      </trkpt>
      <trkpt lat="42.48341" lon="1.57078">
        <ele>2189</ele>
        <time>2016-10-28T13:21:54Z</time>
      </trkpt>
      <trkpt lat="42.48355" lon="1.57081">
        <ele>2187</ele>
        <time>2016-10-28T13:22:07Z</time>
      </trkpt>
      <trkpt lat="42.48367" lon="1.57081">
        <ele>2187</ele>
        <time>2016-10-28T13:22:19Z</time>
      </trkpt>
      <trkpt lat="42.4838" lon="1.57081">
        <ele>2187</ele>
        <time>2016-10-28T13:22:31Z</time>
      </trkpt>
      <trkpt lat="42.48393" lon="1.57084">
        <ele>2186</ele>
        <time>2016-10-28T13:22:44Z</time>
      </trkpt>
      <trkpt lat="42.48404" lon="1.57083">
        <ele>2185</ele>
        <time>2016-10-28T13:22:59Z</time>
      </trkpt>
      <trkpt lat="42.48414" lon="1.57082">
        <ele>2184</ele>
        <time>2016-10-28T13:23:14Z</time>
      </trkpt>
      <trkpt lat="42.48428" lon="1.57084">
        <ele>2184</ele>
        <time>2016-10-28T13:23:40Z</time>
      </trkpt>
      <trkpt lat="42.4844" lon="1.5708">
        <ele>2184</ele>
        <time>2016-10-28T13:23:51Z</time>
      </trkpt>
      <trkpt lat="42.48451" lon="1.57076">
        <ele>2183</ele>
        <time>2016-10-28T13:24:02Z</time>
      </trkpt>
      <trkpt lat="42.48464" lon="1.57074">
        <ele>2183</ele>
        <time>2016-10-28T13:24:13Z</time>
      </trkpt>
      <trkpt lat="42.48476" lon="1.57074">
        <ele>2183</ele>
        <time>2016-10-28T13:24:25Z</time>
      </trkpt>
      <trkpt lat="42.48485" lon="1.57069">
        <ele>2181</ele>
        <time>2016-10-28T13:24:39Z</time>
      </trkpt>
      <trkpt lat="42.48493" lon="1.57065">
        <ele>2179</ele>
        <time>2016-10-28T13:24:54Z</time>
      </trkpt>
      <trkpt lat="42.485" lon="1.57055">
        <ele>2178</ele>
        <time>2016-10-28T13:25:07Z</time>
      </trkpt>
      <trkpt lat="42.48511" lon="1.57045">
        <ele>2177</ele>
        <time>2016-10-28T13:25:19Z</time>
      </trkpt>
      <trkpt lat="42.48522" lon="1.57032">
        <ele>2176</ele>
        <time>2016-10-28T13:25:31Z</time>
      </trkpt>
      <trkpt lat="42.48531" lon="1.57027">
        <ele>2175</ele>
        <time>2016-10-28T13:25:43Z</time>
      </trkpt>
      <trkpt lat="42.48545" lon="1.57019">
        <ele>2173</ele>
        <time>2016-10-28T13:25:56Z</time>
      </trkpt>
      <trkpt lat="42.48556" lon="1.57008">
        <ele>2171</ele>
        <time>2016-10-28T13:26:12Z</time>
      </trkpt>
      <trkpt lat="42.48566" lon="1.56991">
        <ele>2169</ele>
        <time>2016-10-28T13:26:28Z</time>
      </trkpt>
      <trkpt lat="42.48576" lon="1.56983">
        <ele>2168</ele>
        <time>2016-10-28T13:26:40Z</time>
      </trkpt>
      <trkpt lat="42.48586" lon="1.5698">
        <ele>2167</ele>
        <time>2016-10-28T13:26:51Z</time>
      </trkpt>
      <trkpt lat="42.48596" lon="1.56974">
        <ele>2167</ele>
        <time>2016-10-28T13:27:02Z</time>
      </trkpt>
      <trkpt lat="42.48607" lon="1.56965">
        <ele>2166</ele>
        <time>2016-10-28T13:27:13Z</time>
      </trkpt>
      <trkpt lat="42.48616" lon="1.5695">
        <ele>2165</ele>
        <time>2016-10-28T13:27:23Z</time>
      </trkpt>
      <trkpt lat="42.48628" lon="1.56943">
        <ele>2164</ele>
        <time>2016-10-28T13:27:34Z</time>
      </trkpt>
      <trkpt lat="42.48643" lon="1.5693">
        <ele>2162</ele>
        <time>2016-10-28T13:27:47Z</time>
      </trkpt>
      <trkpt lat="42.48657" lon="1.56921">
        <ele>2160</ele>
        <time>2016-10-28T13:27:58Z</time>
      </trkpt>
      <trkpt lat="42.48671" lon="1.56918">
        <ele>2158</ele>
        <time>2016-10-28T13:28:11Z</time>
      </trkpt>
      <trkpt lat="42.4868" lon="1.56911">
        <ele>2155</ele>
        <time>2016-10-28T13:28:26Z</time>
      </trkpt>
      <trkpt lat="42.48688" lon="1.56899">
        <ele>2152</ele>
        <time>2016-10-28T13:28:45Z</time>
      </trkpt>
      <trkpt lat="42.487" lon="1.56891">
        <ele>2149</ele>
        <time>2016-10-28T13:29:02Z</time>
      </trkpt>
      <trkpt lat="42.48713" lon="1.56886">
        <ele>2146</ele>
        <time>2016-10-28T13:29:21Z</time>
      </trkpt>
      <trkpt lat="42.48726" lon="1.56887">
        <ele>2142</ele>
        <time>2016-10-28T13:29:41Z</time>
      </trkpt>
      <trkpt lat="42.48732" lon="1.56882">
        <ele>2139</ele>
        <time>2016-10-28T13:30:07Z</time>
      </trkpt>
      <trkpt lat="42.48733" lon="1.56863">
        <ele>2135</ele>
        <time>2016-10-28T13:31:00Z</time>
      </trkpt>
      <trkpt lat="42.48744" lon="1.5686">
        <ele>2132</ele>
        <time>2016-10-28T13:31:18Z</time>
      </trkpt>
      <trkpt lat="42.48758" lon="1.56862">
        <ele>2129</ele>
        <time>2016-10-28T13:31:41Z</time>
      </trkpt>
      <trkpt lat="42.48766" lon="1.56855">
        <ele>2125</ele>
        <time>2016-10-28T13:32:05Z</time>
      </trkpt>
      <trkpt lat="42.48769" lon="1.5684">
        <ele>2121</ele>
        <time>2016-10-28T13:32:29Z</time>
      </trkpt>
      <trkpt lat="42.48779" lon="1.56832">
        <ele>2117</ele>
        <time>2016-10-28T13:33:00Z</time>
      </trkpt>
      <trkpt lat="42.48789" lon="1.56826">
        <ele>2112</ele>
        <time>2016-10-28T13:33:34Z</time>
      </trkpt>
      <trkpt lat="42.48796" lon="1.56826">
        <ele>2109</ele>
        <time>2016-10-28T13:33:52Z</time>
      </trkpt>
      <trkpt lat="42.48802" lon="1.56811">
        <ele>2105</ele>
        <time>2016-10-28T13:34:11Z</time>
      </trkpt>
      <trkpt lat="42.48813" lon="1.56803">
        <ele>2101</ele>
        <time>2016-10-28T13:34:33Z</time>
      </trkpt>
      <trkpt lat="42.48824" lon="1.56798">
        <ele>2096</ele>
        <time>2016-10-28T13:34:55Z</time>
      </trkpt>
      <trkpt lat="42.48834" lon="1.56789">
        <ele>2092</ele>
        <time>2016-10-28T13:35:16Z</time>
      </trkpt>
      <trkpt lat="42.48843" lon="1.56783">
        <ele>2088</ele>
        <time>2016-10-28T13:35:37Z</time>
      </trkpt>
      <trkpt lat="42.48854" lon="1.56779">
        <ele>2083</ele>
        <time>2016-10-28T13:35:58Z</time>
      </trkpt>
      <trkpt lat="42.4886" lon="1.5677">
        <ele>2079</ele>
        <time>2016-10-28T13:36:19Z</time>
      </trkpt>
      <trkpt lat="42.48873" lon="1.5677">
        <ele>2075</ele>
        <time>2016-10-28T13:36:38Z</time>
      </trkpt>
      <trkpt lat="42.48884" lon="1.56765">
        <ele>2071</ele>
        <time>2016-10-28T13:37:04Z</time>
      </trkpt>
      <trkpt lat="42.48891" lon="1.56769">
        <ele>2067</ele>
        <time>2016-10-28T13:37:27Z</time>
      </trkpt>
      <trkpt lat="42.48895" lon="1.56773">
        <ele>2064</ele>
        <time>2016-10-28T13:37:46Z</time>
      </trkpt>
      <trkpt lat="42.48903" lon="1.56794">
        <ele>2060</ele>
        <time>2016-10-28T13:38:09Z</time>
      </trkpt>
      <trkpt lat="42.48904" lon="1.56812">
        <ele>2056</ele>
        <time>2016-10-28T13:38:30Z</time>
      </trkpt>
      <trkpt lat="42.48907" lon="1.56829">
        <ele>2053</ele>
        <time>2016-10-28T13:38:51Z</time>
      </trkpt>
      <trkpt lat="42.48912" lon="1.56849">
        <ele>2049</ele>
        <time>2016-10-28T13:39:14Z</time>
      </trkpt>
      <trkpt lat="42.4892" lon="1.56861">
        <ele>2046</ele>
        <time>2016-10-28T13:41:45Z</time>
      </trkpt>
      <trkpt lat="42.48927" lon="1.56868">
        <ele>2041</ele>
        <time>2016-10-28T13:42:10Z</time>
      </trkpt>
      <trkpt lat="42.48936" lon="1.56885">
        <ele>2037</ele>
        <time>2016-10-28T13:42:29Z</time>
      </trkpt>
      <trkpt lat="42.48945" lon="1.56896">
        <ele>2033</ele>
        <time>2016-10-28T13:42:50Z</time>
      </trkpt>
      <trkpt lat="42.48957" lon="1.569">
        <ele>2029</ele>
        <time>2016-10-28T13:43:12Z</time>
      </trkpt>
      <trkpt lat="42.48967" lon="1.56903">
        <ele>2025</ele>
        <time>2016-10-28T13:43:31Z</time>
      </trkpt>
      <trkpt lat="42.48975" lon="1.56906">
        <ele>2021</ele>
        <time>2016-10-28T13:43:56Z</time>
      </trkpt>
      <trkpt lat="42.48976" lon="1.5689">
        <ele>2018</ele>
        <time>2016-10-28T13:44:18Z</time>
      </trkpt>
      <trkpt lat="42.48977" lon="1.56874">
        <ele>2014</ele>
        <time>2016-10-28T13:44:39Z</time>
      </trkpt>
      <trkpt lat="42.48986" lon="1.56861">
        <ele>2009</ele>
        <time>2016-10-28T13:45:04Z</time>
      </trkpt>
      <trkpt lat="42.48996" lon="1.56862">
        <ele>2005</ele>
        <time>2016-10-28T13:45:24Z</time>
      </trkpt>
      <trkpt lat="42.49011" lon="1.56871">
        <ele>2001</ele>
        <time>2016-10-28T13:46:04Z</time>
      </trkpt>
      <trkpt lat="42.49021" lon="1.5688">
        <ele>1998</ele>
        <time>2016-10-28T13:46:25Z</time>
      </trkpt>
      <trkpt lat="42.49023" lon="1.56872">
        <ele>1994</ele>
        <time>2016-10-28T13:47:32Z</time>
      </trkpt>
      <trkpt lat="42.4903" lon="1.56877">
        <ele>1990</ele>
        <time>2016-10-28T13:47:58Z</time>
      </trkpt>
      <trkpt lat="42.49033" lon="1.56866">
        <ele>1985</ele>
        <time>2016-10-28T13:48:19Z</time>
      </trkpt>
      <trkpt lat="42.49037" lon="1.56855">
        <ele>1981</ele>
        <time>2016-10-28T13:48:44Z</time>
      </trkpt>
      <trkpt lat="42.49047" lon="1.56848">
        <ele>1976</ele>
        <time>2016-10-28T13:49:25Z</time>
      </trkpt>
      <trkpt lat="42.49055" lon="1.56845">
        <ele>1970</ele>
        <time>2016-10-28T13:50:00Z</time>
      </trkpt>
      <trkpt lat="42.49065" lon="1.56836">
        <ele>1965</ele>
        <time>2016-10-28T13:50:27Z</time>
      </trkpt>
      <trkpt lat="42.49076" lon="1.56833">
        <ele>1961</ele>
        <time>2016-10-28T13:50:49Z</time>
      </trkpt>
      <trkpt lat="42.49086" lon="1.56836">
        <ele>1956</ele>
        <time>2016-10-28T13:51:10Z</time>
      </trkpt>
      <trkpt lat="42.49095" lon="1.56838">
        <ele>1954</ele>
        <time>2016-10-28T13:51:24Z</time>
      </trkpt>
      <trkpt lat="42.49106" lon="1.56839">
        <ele>1951</ele>
        <time>2016-10-28T13:51:37Z</time>
      </trkpt>
      <trkpt lat="42.4912" lon="1.56846">
        <ele>1949</ele>
        <time>2016-10-28T13:52:34Z</time>
      </trkpt>
      <trkpt lat="42.49117" lon="1.56854">
        <ele>1942</ele>
        <time>2016-10-28T13:58:18Z</time>
      </trkpt>
      <trkpt lat="42.49125" lon="1.56859">
        <ele>1938</ele>
        <time>2016-10-28T13:58:46Z</time>
      </trkpt>
      <trkpt lat="42.49138" lon="1.5686">
        <ele>1932</ele>
        <time>2016-10-28T13:59:12Z</time>
      </trkpt>
      <trkpt lat="42.49146" lon="1.56863">
        <ele>1927</ele>
        <time>2016-10-28T13:59:36Z</time>
      </trkpt>
      <trkpt lat="42.4915" lon="1.56849">
        <ele>1922</ele>
        <time>2016-10-28T14:00:01Z</time>
      </trkpt>
      <trkpt lat="42.49157" lon="1.56828">
        <ele>1918</ele>
        <time>2016-10-28T14:00:19Z</time>
      </trkpt>
      <trkpt lat="42.49164" lon="1.56826">
        <ele>1914</ele>
        <time>2016-10-28T14:00:38Z</time>
      </trkpt>
      <trkpt lat="42.49169" lon="1.56818">
        <ele>1908</ele>
        <time>2016-10-28T14:01:00Z</time>
      </trkpt>
      <trkpt lat="42.49178" lon="1.56817">
        <ele>1905</ele>
        <time>2016-10-28T14:01:20Z</time>
      </trkpt>
      <trkpt lat="42.49187" lon="1.56809">
        <ele>1900</ele>
        <time>2016-10-28T14:01:41Z</time>
      </trkpt>
      <trkpt lat="42.49192" lon="1.5681">
        <ele>1896</ele>
        <time>2016-10-28T14:02:00Z</time>
      </trkpt>
      <trkpt lat="42.49202" lon="1.56803">
        <ele>1891</ele>
        <time>2016-10-28T14:02:23Z</time>
      </trkpt>
      <trkpt lat="42.4921" lon="1.56801">
        <ele>1885</ele>
        <time>2016-10-28T14:02:48Z</time>
      </trkpt>
      <trkpt lat="42.49223" lon="1.56809">
        <ele>1881</ele>
        <time>2016-10-28T14:03:12Z</time>
      </trkpt>
      <trkpt lat="42.49229" lon="1.56808">
        <ele>1879</ele>
        <time>2016-10-28T14:03:28Z</time>
      </trkpt>
      <trkpt lat="42.49237" lon="1.56806">
        <ele>1874</ele>
        <time>2016-10-28T14:03:48Z</time>
      </trkpt>
      <trkpt lat="42.49242" lon="1.56799">
        <ele>1870</ele>
        <time>2016-10-28T14:04:10Z</time>
      </trkpt>
      <trkpt lat="42.49246" lon="1.56788">
        <ele>1866</ele>
        <time>2016-10-28T14:04:29Z</time>
      </trkpt>
      <trkpt lat="42.49251" lon="1.56778">
        <ele>1862</ele>
        <time>2016-10-28T14:04:48Z</time>
      </trkpt>
      <trkpt lat="42.49256" lon="1.56772">
        <ele>1858</ele>
        <time>2016-10-28T14:05:16Z</time>
      </trkpt>
      <trkpt lat="42.49261" lon="1.56771">
        <ele>1854</ele>
        <time>2016-10-28T14:05:38Z</time>
      </trkpt>
      <trkpt lat="42.49272" lon="1.5677">
        <ele>1849</ele>
        <time>2016-10-28T14:06:24Z</time>
      </trkpt>
      <trkpt lat="42.49281" lon="1.56768">
        <ele>1846</ele>
        <time>2016-10-28T14:06:43Z</time>
      </trkpt>
      <trkpt lat="42.49285" lon="1.56757">
        <ele>1842</ele>
        <time>2016-10-28T14:07:17Z</time>
      </trkpt>
      <trkpt lat="42.49294" lon="1.56742">
        <ele>1838</ele>
        <time>2016-10-28T14:07:57Z</time>
      </trkpt>
      <trkpt lat="42.49304" lon="1.56738">
        <ele>1832</ele>
        <time>2016-10-28T14:08:26Z</time>
      </trkpt>
      <trkpt lat="42.49316" lon="1.56738">
        <ele>1827</ele>
        <time>2016-10-28T14:08:53Z</time>
      </trkpt>
      <trkpt lat="42.49328" lon="1.56753">
        <ele>1820</ele>
        <time>2016-10-28T14:09:29Z</time>
      </trkpt>
      <trkpt lat="42.49334" lon="1.56745">
        <ele>1817</ele>
        <time>2016-10-28T14:09:46Z</time>
      </trkpt>
      <trkpt lat="42.49341" lon="1.56748">
        <ele>1813</ele>
        <time>2016-10-28T14:10:04Z</time>
      </trkpt>
      <trkpt lat="42.49354" lon="1.5675">
        <ele>1808</ele>
        <time>2016-10-28T14:10:30Z</time>
      </trkpt>
      <trkpt lat="42.49365" lon="1.56749">
        <ele>1804</ele>
        <time>2016-10-28T14:10:49Z</time>
      </trkpt>
      <trkpt lat="42.49379" lon="1.56739">
        <ele>1799</ele>
        <time>2016-10-28T14:11:15Z</time>
      </trkpt>
      <trkpt lat="42.49393" lon="1.56731">
        <ele>1795</ele>
        <time>2016-10-28T14:11:35Z</time>
      </trkpt>
      <trkpt lat="42.49401" lon="1.56719">
        <ele>1793</ele>
        <time>2016-10-28T14:11:51Z</time>
      </trkpt>
      <trkpt lat="42.49416" lon="1.56712">
        <ele>1790</ele>
        <time>2016-10-28T14:12:04Z</time>
      </trkpt>
      <trkpt lat="42.49429" lon="1.56707">
        <ele>1788</ele>
        <time>2016-10-28T14:12:38Z</time>
      </trkpt>
      <trkpt lat="42.49442" lon="1.56709">
        <ele>1785</ele>
        <time>2016-10-28T14:12:57Z</time>
      </trkpt>
      <trkpt lat="42.49455" lon="1.56688">
        <ele>1779</ele>
        <time>2016-10-28T14:13:25Z</time>
      </trkpt>
      <trkpt lat="42.4947" lon="1.5668">
        <ele>1774</ele>
        <time>2016-10-28T14:13:49Z</time>
      </trkpt>
      <trkpt lat="42.49478" lon="1.56698">
        <ele>1770</ele>
        <time>2016-10-28T14:14:13Z</time>
      </trkpt>
      <trkpt lat="42.49483" lon="1.56708">
        <ele>1766</ele>
        <time>2016-10-28T14:14:33Z</time>
      </trkpt>
      <trkpt lat="42.49491" lon="1.56722">
        <ele>1761</ele>
        <time>2016-10-28T14:14:57Z</time>
      </trkpt>
      <trkpt lat="42.49494" lon="1.56725">
        <ele>1756</ele>
        <time>2016-10-28T14:15:29Z</time>
      </trkpt>
      <trkpt lat="42.495" lon="1.56716">
        <ele>1751</ele>
        <time>2016-10-28T14:15:52Z</time>
      </trkpt>
      <trkpt lat="42.49508" lon="1.56707">
        <ele>1747</ele>
        <time>2016-10-28T14:16:08Z</time>
      </trkpt>
      <trkpt lat="42.49515" lon="1.56703">
        <ele>1744</ele>
        <time>2016-10-28T14:16:24Z</time>
      </trkpt>
      <trkpt lat="42.4953" lon="1.56686">
        <ele>1741</ele>
        <time>2016-10-28T14:16:45Z</time>
      </trkpt>
      <trkpt lat="42.4953" lon="1.56706">
        <ele>1736</ele>
        <time>2016-10-28T14:17:07Z</time>
      </trkpt>
      <trkpt lat="42.49536" lon="1.56722">
        <ele>1733</ele>
        <time>2016-10-28T14:17:26Z</time>
      </trkpt>
      <trkpt lat="42.49541" lon="1.56733">
        <ele>1731</ele>
        <time>2016-10-28T14:17:41Z</time>
      </trkpt>
      <trkpt lat="42.49546" lon="1.56743">
        <ele>1727</ele>
        <time>2016-10-28T14:17:59Z</time>
      </trkpt>
      <trkpt lat="42.4955" lon="1.56753">
        <ele>1724</ele>
        <time>2016-10-28T14:18:20Z</time>
      </trkpt>
      <trkpt lat="42.49554" lon="1.56758">
        <ele>1720</ele>
        <time>2016-10-28T14:18:42Z</time>
      </trkpt>
      <trkpt lat="42.49554" lon="1.56744">
        <ele>1716</ele>
        <time>2016-10-28T14:19:06Z</time>
      </trkpt>
      <trkpt lat="42.49559" lon="1.56734">
        <ele>1713</ele>
        <time>2016-10-28T14:19:26Z</time>
      </trkpt>
      <trkpt lat="42.49567" lon="1.5671">
        <ele>1709</ele>
        <time>2016-10-28T14:20:05Z</time>
      </trkpt>
      <trkpt lat="42.49577" lon="1.56691">
        <ele>1705</ele>
        <time>2016-10-28T14:20:26Z</time>
      </trkpt>
      <trkpt lat="42.4959" lon="1.56671">
        <ele>1701</ele>
        <time>2016-10-28T14:20:44Z</time>
      </trkpt>
      <trkpt lat="42.49603" lon="1.56652">
        <ele>1697</ele>
        <time>2016-10-28T14:21:03Z</time>
      </trkpt>
      <trkpt lat="42.49615" lon="1.5666">
        <ele>1693</ele>
        <time>2016-10-28T14:21:25Z</time>
      </trkpt>
      <trkpt lat="42.49623" lon="1.56671">
        <ele>1689</ele>
        <time>2016-10-28T14:21:42Z</time>
      </trkpt>
      <trkpt lat="42.49621" lon="1.56686">
        <ele>1686</ele>
        <time>2016-10-28T14:21:57Z</time>
      </trkpt>
      <trkpt lat="42.49623" lon="1.56708">
        <ele>1683</ele>
        <time>2016-10-28T14:22:11Z</time>
      </trkpt>
      <trkpt lat="42.49621" lon="1.56728">
        <ele>1680</ele>
        <time>2016-10-28T14:22:25Z</time>
      </trkpt>
      <trkpt lat="42.49617" lon="1.5675">
        <ele>1679</ele>
        <time>2016-10-28T14:22:39Z</time>
      </trkpt>
      <trkpt lat="42.49623" lon="1.56766">
        <ele>1675</ele>
        <time>2016-10-28T14:22:56Z</time>
      </trkpt>
      <trkpt lat="42.49626" lon="1.56781">
        <ele>1672</ele>
        <time>2016-10-28T14:23:07Z</time>
      </trkpt>
      <trkpt lat="42.49627" lon="1.56804">
        <ele>1669</ele>
        <time>2016-10-28T14:23:25Z</time>
      </trkpt>
      <trkpt lat="42.49633" lon="1.56814">
        <ele>1665</ele>
        <time>2016-10-28T14:23:44Z</time>
      </trkpt>
      <trkpt lat="42.49632" lon="1.56824">
        <ele>1660</ele>
        <time>2016-10-28T14:24:11Z</time>
      </trkpt>
      <trkpt lat="42.49644" lon="1.56816">
        <ele>1654</ele>
        <time>2016-10-28T14:24:44Z</time>
      </trkpt>
      <trkpt lat="42.49651" lon="1.56813">
        <ele>1647</ele>
        <time>2016-10-28T14:25:11Z</time>
      </trkpt>
      <trkpt lat="42.49663" lon="1.56812">
        <ele>1642</ele>
        <time>2016-10-28T14:25:35Z</time>
      </trkpt>
      <trkpt lat="42.49674" lon="1.56816">
        <ele>1637</ele>
        <time>2016-10-28T14:26:01Z</time>
      </trkpt>
      <trkpt lat="42.49692" lon="1.56807">
        <ele>1633</ele>
        <time>2016-10-28T14:26:24Z</time>
      </trkpt>
      <trkpt lat="42.49705" lon="1.56815">
        <ele>1629</ele>
        <time>2016-10-28T14:26:48Z</time>
      </trkpt>
      <trkpt lat="42.49713" lon="1.56829">
        <ele>1628</ele>
        <time>2016-10-28T14:27:10Z</time>
      </trkpt>
      <trkpt lat="42.49718" lon="1.56842">
        <ele>1626</ele>
        <time>2016-10-28T14:27:37Z</time>
      </trkpt>
      <trkpt lat="42.49723" lon="1.56856">
        <ele>1622</ele>
        <time>2016-10-28T14:27:54Z</time>
      </trkpt>
      <trkpt lat="42.49729" lon="1.56876">
        <ele>1620</ele>
        <time>2016-10-28T14:28:33Z</time>
      </trkpt>
      <trkpt lat="42.49736" lon="1.56886">
        <ele>1618</ele>
        <time>2016-10-28T14:30:18Z</time>
      </trkpt>
      <trkpt lat="42.49741" lon="1.56882">
        <ele>1614</ele>
        <time>2016-10-28T14:35:23Z</time>
      </trkpt>
      <trkpt lat="42.49743" lon="1.56882">
        <ele>1612</ele>
        <time>2016-10-28T14:37:10Z</time>
      </trkpt>
      <trkpt lat="42.49748" lon="1.56874">
        <ele>1613</ele>
        <time>2016-10-28T14:37:25Z</time>
      </trkpt>
      <trkpt lat="42.49756" lon="1.56861">
        <ele>1614</ele>
        <time>2016-10-28T14:37:36Z</time>
      </trkpt>
      <trkpt lat="42.49765" lon="1.56847">
        <ele>1615</ele>
        <time>2016-10-28T14:37:49Z</time>
      </trkpt>
      <trkpt lat="42.49776" lon="1.5684">
        <ele>1614</ele>
        <time>2016-10-28T14:38:31Z</time>
      </trkpt>
      <trkpt lat="42.49783" lon="1.56826">
        <ele>1614</ele>
        <time>2016-10-28T14:38:42Z</time>
      </trkpt>
      <trkpt lat="42.49792" lon="1.56818">
        <ele>1615</ele>
        <time>2016-10-28T14:38:58Z</time>
      </trkpt>
      <trkpt lat="42.49794" lon="1.56815">
        <ele>1614</ele>
        <time>2016-10-28T14:39:46Z</time>
      </trkpt>
      <trkpt lat="42.49797" lon="1.56802">
        <ele>1613</ele>
        <time>2016-10-28T14:40:21Z</time>
      </trkpt>
      <trkpt lat="42.498" lon="1.56791">
        <ele>1610</ele>
        <time>2016-10-28T14:40:33Z</time>
      </trkpt>
      <trkpt lat="42.49804" lon="1.56775">
        <ele>1608</ele>
        <time>2016-10-28T14:40:49Z</time>
      </trkpt>
      <trkpt lat="42.49808" lon="1.56759">
        <ele>1607</ele>
        <time>2016-10-28T14:41:19Z</time>
      </trkpt>
      <trkpt lat="42.49813" lon="1.56735">
        <ele>1605</ele>
        <time>2016-10-28T14:41:44Z</time>
      </trkpt>
      <trkpt lat="42.49808" lon="1.56725">
        <ele>1603</ele>
        <time>2016-10-28T14:41:57Z</time>
      </trkpt>
      <trkpt lat="42.49801" lon="1.56716">
        <ele>1602</ele>
        <time>2016-10-28T14:42:10Z</time>
      </trkpt>
      <trkpt lat="42.49791" lon="1.56705">
        <ele>1599</ele>
        <time>2016-10-28T14:42:26Z</time>
      </trkpt>
      <trkpt lat="42.49797" lon="1.56675">
        <ele>1597</ele>
        <time>2016-10-28T14:43:07Z</time>
      </trkpt>
      <trkpt lat="42.49797" lon="1.56658">
        <ele>1594</ele>
        <time>2016-10-28T14:43:22Z</time>
      </trkpt>
      <trkpt lat="42.49802" lon="1.56639">
        <ele>1590</ele>
        <time>2016-10-28T14:43:38Z</time>
      </trkpt>
      <trkpt lat="42.49811" lon="1.56624">
        <ele>1587</ele>
        <time>2016-10-28T14:43:54Z</time>
      </trkpt>
      <trkpt lat="42.49814" lon="1.56607">
        <ele>1585</ele>
        <time>2016-10-28T14:44:09Z</time>
      </trkpt>
      <trkpt lat="42.49817" lon="1.56586">
        <ele>1582</ele>
        <time>2016-10-28T14:44:27Z</time>
      </trkpt>
      <trkpt lat="42.4982" lon="1.56563">
        <ele>1580</ele>
        <time>2016-10-28T14:44:47Z</time>
      </trkpt>
      <trkpt lat="42.4982" lon="1.56548">
        <ele>1578</ele>
        <time>2016-10-28T14:45:04Z</time>
      </trkpt>
      <trkpt lat="42.4983" lon="1.56516">
        <ele>1576</ele>
        <time>2016-10-28T14:45:21Z</time>
      </trkpt>
      <trkpt lat="42.49835" lon="1.56499">
        <ele>1573</ele>
        <time>2016-10-28T14:45:37Z</time>
      </trkpt>
      <trkpt lat="42.49835" lon="1.56482">
        <ele>1569</ele>
        <time>2016-10-28T14:46:00Z</time>
      </trkpt>
      <trkpt lat="42.49833" lon="1.56467">
        <ele>1565</ele>
        <time>2016-10-28T14:46:19Z</time>
      </trkpt>
      <trkpt lat="42.49833" lon="1.56452">
        <ele>1563</ele>
        <time>2016-10-28T14:46:35Z</time>
      </trkpt>
      <trkpt lat="42.49833" lon="1.56437">
        <ele>1560</ele>
        <time>2016-10-28T14:46:54Z</time>
      </trkpt>
      <trkpt lat="42.49831" lon="1.56436">
        <ele>1557</ele>
        <time>2016-10-28T14:47:10Z</time>
      </trkpt>
      <trkpt lat="42.49828" lon="1.5643">
        <ele>1554</ele>
        <time>2016-10-28T14:47:24Z</time>
      </trkpt>
      <trkpt lat="42.49826" lon="1.5642">
        <ele>1551</ele>
        <time>2016-10-28T14:47:40Z</time>
      </trkpt>
      <trkpt lat="42.49824" lon="1.56407">
        <ele>1547</ele>
        <time>2016-10-28T14:47:55Z</time>
      </trkpt>
      <trkpt lat="42.49825" lon="1.56391">
        <ele>1544</ele>
        <time>2016-10-28T14:48:15Z</time>
      </trkpt>
      <trkpt lat="42.49826" lon="1.56379">
        <ele>1541</ele>
        <time>2016-10-28T14:48:29Z</time>
      </trkpt>
      <trkpt lat="42.49825" lon="1.56363">
        <ele>1539</ele>
        <time>2016-10-28T14:48:43Z</time>
      </trkpt>
      <trkpt lat="42.49825" lon="1.56346">
        <ele>1537</ele>
        <time>2016-10-28T14:48:57Z</time>
      </trkpt>
      <trkpt lat="42.49826" lon="1.56327">
        <ele>1534</ele>
        <time>2016-10-28T14:49:13Z</time>
      </trkpt>
      <trkpt lat="42.49825" lon="1.56313">
        <ele>1532</ele>
        <time>2016-10-28T14:49:27Z</time>
      </trkpt>
      <trkpt lat="42.49825" lon="1.56295">
        <ele>1530</ele>
        <time>2016-10-28T14:49:43Z</time>
      </trkpt>
      <trkpt lat="42.49825" lon="1.56275">
        <ele>1526</ele>
        <time>2016-10-28T14:50:01Z</time>
      </trkpt>
      <trkpt lat="42.49821" lon="1.56261">
        <ele>1524</ele>
        <time>2016-10-28T14:50:14Z</time>
      </trkpt>
      <trkpt lat="42.49814" lon="1.56246">
        <ele>1522</ele>
        <time>2016-10-28T14:50:29Z</time>
      </trkpt>
      <trkpt lat="42.49807" lon="1.56235">
        <ele>1521</ele>
        <time>2016-10-28T14:50:41Z</time>
      </trkpt>
      <trkpt lat="42.49801" lon="1.56223">
        <ele>1520</ele>
        <time>2016-10-28T14:50:55Z</time>
      </trkpt>
      <trkpt lat="42.49809" lon="1.56203">
        <ele>1517</ele>
        <time>2016-10-28T14:51:13Z</time>
      </trkpt>
      <trkpt lat="42.49811" lon="1.56184">
        <ele>1516</ele>
        <time>2016-10-28T14:51:29Z</time>
      </trkpt>
      <trkpt lat="42.49812" lon="1.56166">
        <ele>1513</ele>
        <time>2016-10-28T14:51:45Z</time>
      </trkpt>
      <trkpt lat="42.49807" lon="1.56152">
        <ele>1511</ele>
        <time>2016-10-28T14:51:58Z</time>
      </trkpt>
      <trkpt lat="42.49802" lon="1.56142">
        <ele>1509</ele>
        <time>2016-10-28T14:52:10Z</time>
      </trkpt>
      <trkpt lat="42.49798" lon="1.56128">
        <ele>1508</ele>
        <time>2016-10-28T14:52:22Z</time>
      </trkpt>
      <trkpt lat="42.49792" lon="1.56117">
        <ele>1506</ele>
        <time>2016-10-28T14:52:34Z</time>
      </trkpt>
      <trkpt lat="42.49787" lon="1.56105">
        <ele>1505</ele>
        <time>2016-10-28T14:52:48Z</time>
      </trkpt>
      <trkpt lat="42.49789" lon="1.56082">
        <ele>1502</ele>
        <time>2016-10-28T14:53:19Z</time>
      </trkpt>
      <trkpt lat="42.49791" lon="1.56066">
        <ele>1499</ele>
        <time>2016-10-28T14:53:32Z</time>
      </trkpt>
      <trkpt lat="42.49792" lon="1.5605">
        <ele>1497</ele>
        <time>2016-10-28T14:53:47Z</time>
      </trkpt>
      <trkpt lat="42.49784" lon="1.56034">
        <ele>1496</ele>
        <time>2016-10-28T14:54:36Z</time>
      </trkpt>
      <trkpt lat="42.49781" lon="1.56034">
        <ele>1495</ele>
        <time>2016-10-28T14:55:54Z</time>
      </trkpt>
      <trkpt lat="42.49782" lon="1.56018">
        <ele>1494</ele>
        <time>2016-10-28T14:56:18Z</time>
      </trkpt>
      <trkpt lat="42.49783" lon="1.56006">
        <ele>1493</ele>
        <time>2016-10-28T14:56:30Z</time>
      </trkpt>
      <trkpt lat="42.49784" lon="1.55991">
        <ele>1492</ele>
        <time>2016-10-28T14:56:44Z</time>
      </trkpt>
      <trkpt lat="42.49788" lon="1.55977">
        <ele>1491</ele>
        <time>2016-10-28T14:57:47Z</time>
      </trkpt>
      <trkpt lat="42.49794" lon="1.55963">
        <ele>1488</ele>
        <time>2016-10-28T14:58:06Z</time>
      </trkpt>
      <trkpt lat="42.49802" lon="1.55943">
        <ele>1485</ele>
        <time>2016-10-28T14:58:27Z</time>
      </trkpt>
      <trkpt lat="42.49813" lon="1.55924">
        <ele>1482</ele>
        <time>2016-10-28T14:58:47Z</time>
      </trkpt>
      <trkpt lat="42.4982" lon="1.55908">
        <ele>1480</ele>
        <time>2016-10-28T14:59:08Z</time>
      </trkpt>
      <trkpt lat="42.49825" lon="1.55897">
        <ele>1477</ele>
        <time>2016-10-28T14:59:20Z</time>
      </trkpt>
      <trkpt lat="42.49823" lon="1.55887">
        <ele>1474</ele>
        <time>2016-10-28T14:59:35Z</time>
      </trkpt>
      <trkpt lat="42.49825" lon="1.55873">
        <ele>1471</ele>
        <time>2016-10-28T14:59:52Z</time>
      </trkpt>
      <trkpt lat="42.49827" lon="1.55863">
        <ele>1469</ele>
        <time>2016-10-28T15:00:42Z</time>
      </trkpt>
      <trkpt lat="42.49828" lon="1.55857">
        <ele>1466</ele>
        <time>2016-10-28T15:00:58Z</time>
      </trkpt>
      <trkpt lat="42.49835" lon="1.55848">
        <ele>1463</ele>
        <time>2016-10-28T15:01:16Z</time>
      </trkpt>
      <trkpt lat="42.49836" lon="1.55837">
        <ele>1460</ele>
        <time>2016-10-28T15:01:32Z</time>
      </trkpt>
      <trkpt lat="42.49829" lon="1.55825">
        <ele>1457</ele>
        <time>2016-10-28T15:01:47Z</time>
      </trkpt>
      <trkpt lat="42.49822" lon="1.55817">
        <ele>1454</ele>
        <time>2016-10-28T15:02:05Z</time>
      </trkpt>
      <trkpt lat="42.49824" lon="1.55804">
        <ele>1451</ele>
        <time>2016-10-28T15:02:22Z</time>
      </trkpt>
      <trkpt lat="42.49829" lon="1.55793">
        <ele>1447</ele>
        <time>2016-10-28T15:02:56Z</time>
      </trkpt>
      <trkpt lat="42.49837" lon="1.5578">
        <ele>1445</ele>
        <time>2016-10-28T15:03:13Z</time>
      </trkpt>
      <trkpt lat="42.49853" lon="1.55764">
        <ele>1442</ele>
        <time>2016-10-28T15:03:42Z</time>
      </trkpt>
      <trkpt lat="42.49858" lon="1.55753">
        <ele>1439</ele>
        <time>2016-10-28T15:03:58Z</time>
      </trkpt>
      <trkpt lat="42.49864" lon="1.55738">
        <ele>1435</ele>
        <time>2016-10-28T15:04:16Z</time>
      </trkpt>
      <trkpt lat="42.49874" lon="1.55724">
        <ele>1433</ele>
        <time>2016-10-28T15:04:34Z</time>
      </trkpt>
      <trkpt lat="42.49881" lon="1.55709">
        <ele>1428</ele>
        <time>2016-10-28T15:04:55Z</time>
      </trkpt>
      <trkpt lat="42.4989" lon="1.55697">
        <ele>1425</ele>
        <time>2016-10-28T15:05:11Z</time>
      </trkpt>
      <trkpt lat="42.49893" lon="1.55687">
        <ele>1421</ele>
        <time>2016-10-28T15:05:28Z</time>
      </trkpt>
      <trkpt lat="42.49898" lon="1.55671">
        <ele>1418</ele>
        <time>2016-10-28T15:05:49Z</time>
      </trkpt>
      <trkpt lat="42.49909" lon="1.55657">
        <ele>1414</ele>
        <time>2016-10-28T15:06:12Z</time>
      </trkpt>
      <trkpt lat="42.49931" lon="1.55646">
        <ele>1412</ele>
        <time>2016-10-28T15:07:00Z</time>
      </trkpt>
      <trkpt lat="42.49936" lon="1.55638">
        <ele>1408</ele>
        <time>2016-10-28T15:07:18Z</time>
      </trkpt>
      <trkpt lat="42.49945" lon="1.55636">
        <ele>1405</ele>
        <time>2016-10-28T15:07:32Z</time>
      </trkpt>
      <trkpt lat="42.49959" lon="1.55634">
        <ele>1403</ele>
        <time>2016-10-28T15:07:46Z</time>
      </trkpt>
      <trkpt lat="42.49969" lon="1.55628">
        <ele>1400</ele>
        <time>2016-10-28T15:08:49Z</time>
      </trkpt>
      <trkpt lat="42.49975" lon="1.55621">
        <ele>1397</ele>
        <time>2016-10-28T15:09:08Z</time>
      </trkpt>
      <trkpt lat="42.49976" lon="1.55609">
        <ele>1393</ele>
        <time>2016-10-28T15:09:26Z</time>
      </trkpt>
      <trkpt lat="42.49984" lon="1.55601">
        <ele>1389</ele>
        <time>2016-10-28T15:09:45Z</time>
      </trkpt>
      <trkpt lat="42.49992" lon="1.55586">
        <ele>1385</ele>
        <time>2016-10-28T15:10:07Z</time>
      </trkpt>
      <trkpt lat="42.5" lon="1.55576">
        <ele>1382</ele>
        <time>2016-10-28T15:10:24Z</time>
      </trkpt>
      <trkpt lat="42.50008" lon="1.55567">
        <ele>1378</ele>
        <time>2016-10-28T15:10:43Z</time>
      </trkpt>
      <trkpt lat="42.50012" lon="1.55561">
        <ele>1375</ele>
        <time>2016-10-28T15:10:59Z</time>
      </trkpt>
      <trkpt lat="42.50022" lon="1.55549">
        <ele>1371</ele>
        <time>2016-10-28T15:11:19Z</time>
      </trkpt>
      <trkpt lat="42.50033" lon="1.5554">
        <ele>1368</ele>
        <time>2016-10-28T15:11:36Z</time>
      </trkpt>
      <trkpt lat="42.50041" lon="1.5553">
        <ele>1365</ele>
        <time>2016-10-28T15:11:52Z</time>
      </trkpt>
      <trkpt lat="42.50053" lon="1.55521">
        <ele>1362</ele>
        <time>2016-10-28T15:12:08Z</time>
      </trkpt>
      <trkpt lat="42.50056" lon="1.55516">
        <ele>1359</ele>
        <time>2016-10-28T15:12:26Z</time>
      </trkpt>
      <trkpt lat="42.50051" lon="1.5551">
        <ele>1356</ele>
        <time>2016-10-28T15:12:43Z</time>
      </trkpt>
      <trkpt lat="42.50051" lon="1.55504">
        <ele>1354</ele>
        <time>2016-10-28T15:12:56Z</time>
      </trkpt>
      <trkpt lat="42.50053" lon="1.55496">
        <ele>1352</ele>
        <time>2016-10-28T15:13:14Z</time>
      </trkpt>
      <trkpt lat="42.5006" lon="1.55488">
        <ele>1349</ele>
        <time>2016-10-28T15:13:30Z</time>
      </trkpt>
      <trkpt lat="42.50068" lon="1.55479">
        <ele>1346</ele>
        <time>2016-10-28T15:13:45Z</time>
      </trkpt>
      <trkpt lat="42.50076" lon="1.55466">
        <ele>1344</ele>
        <time>2016-10-28T15:14:01Z</time>
      </trkpt>
      <trkpt lat="42.5008" lon="1.55453">
        <ele>1342</ele>
        <time>2016-10-28T15:14:12Z</time>
      </trkpt>
      <trkpt lat="42.50086" lon="1.55441">
        <ele>1340</ele>
        <time>2016-10-28T15:14:24Z</time>
      </trkpt>
      <trkpt lat="42.50094" lon="1.55435">
        <ele>1338</ele>
        <time>2016-10-28T15:14:39Z</time>
      </trkpt>
      <trkpt lat="42.50092" lon="1.55423">
        <ele>1337</ele>
        <time>2016-10-28T15:14:53Z</time>
      </trkpt>
      <trkpt lat="42.50095" lon="1.55412">
        <ele>1336</ele>
        <time>2016-10-28T15:15:20Z</time>
      </trkpt>
      <trkpt lat="42.50087" lon="1.55402">
        <ele>1336</ele>
        <time>2016-10-28T15:15:47Z</time>
      </trkpt>
      <trkpt lat="42.50085" lon="1.55389">
        <ele>1336</ele>
        <time>2016-10-28T15:16:10Z</time>
      </trkpt>
      <trkpt lat="42.50089" lon="1.55378">
        <ele>1335</ele>
        <time>2016-10-28T15:16:26Z</time>
      </trkpt>
      <trkpt lat="42.501" lon="1.55358">
        <ele>1333</ele>
        <time>2016-10-28T15:16:46Z</time>
      </trkpt>
      <trkpt lat="42.50116" lon="1.55347">
        <ele>1331</ele>
        <time>2016-10-28T15:17:01Z</time>
      </trkpt>
      <trkpt lat="42.50133" lon="1.55333">
        <ele>1330</ele>
        <time>2016-10-28T15:17:20Z</time>
      </trkpt>
      <trkpt lat="42.50151" lon="1.55312">
        <ele>1330</ele>
        <time>2016-10-28T15:17:43Z</time>
      </trkpt>
      <trkpt lat="42.50156" lon="1.55307">
        <ele>1327</ele>
        <time>2016-10-28T15:17:56Z</time>
      </trkpt>
      <trkpt lat="42.50166" lon="1.55296">
        <ele>1325</ele>
        <time>2016-10-28T15:18:11Z</time>
      </trkpt>
      <trkpt lat="42.50176" lon="1.5529">
        <ele>1322</ele>
        <time>2016-10-28T15:18:26Z</time>
      </trkpt>
      <trkpt lat="42.50188" lon="1.55284">
        <ele>1321</ele>
        <time>2016-10-28T15:18:36Z</time>
      </trkpt>
      <trkpt lat="42.50197" lon="1.55273">
        <ele>1320</ele>
        <time>2016-10-28T15:18:47Z</time>
      </trkpt>
      <trkpt lat="42.50208" lon="1.55264">
        <ele>1317</ele>
        <time>2016-10-28T15:19:02Z</time>
      </trkpt>
      <trkpt lat="42.50218" lon="1.55257">
        <ele>1316</ele>
        <time>2016-10-28T15:19:12Z</time>
      </trkpt>
      <trkpt lat="42.50228" lon="1.5525">
        <ele>1315</ele>
        <time>2016-10-28T15:19:23Z</time>
      </trkpt>
      <trkpt lat="42.50238" lon="1.5524">
        <ele>1315</ele>
        <time>2016-10-28T15:19:36Z</time>
      </trkpt>
      <trkpt lat="42.50249" lon="1.55229">
        <ele>1313</ele>
        <time>2016-10-28T15:19:52Z</time>
      </trkpt>
      <trkpt lat="42.50258" lon="1.55225">
        <ele>1311</ele>
        <time>2016-10-28T15:20:06Z</time>
      </trkpt>
      <trkpt lat="42.5027" lon="1.55213">
        <ele>1309</ele>
        <time>2016-10-28T15:20:18Z</time>
      </trkpt>
      <trkpt lat="42.5028" lon="1.55207">
        <ele>1307</ele>
        <time>2016-10-28T15:20:31Z</time>
      </trkpt>
      <trkpt lat="42.50282" lon="1.55198">
        <ele>1303</ele>
        <time>2016-10-28T15:20:57Z</time>
      </trkpt>
      <trkpt lat="42.50283" lon="1.55188">
        <ele>1300</ele>
        <time>2016-10-28T15:21:11Z</time>
      </trkpt>
      <trkpt lat="42.50286" lon="1.55182">
        <ele>1297</ele>
        <time>2016-10-28T15:21:26Z</time>
      </trkpt>
      <trkpt lat="42.50293" lon="1.55178">
        <ele>1294</ele>
        <time>2016-10-28T15:21:46Z</time>
      </trkpt>
      <trkpt lat="42.50296" lon="1.55177">
        <ele>1295</ele>
        <time>2016-10-28T15:22:09Z</time>
      </trkpt>
      <trkpt lat="42.50295" lon="1.55174">
        <ele>1292</ele>
        <time>2016-10-28T15:22:30Z</time>
      </trkpt>
      <trkpt lat="42.503" lon="1.55179">
        <ele>1289</ele>
        <time>2016-10-28T15:22:45Z</time>
      </trkpt>
      <trkpt lat="42.50306" lon="1.55187">
        <ele>1287</ele>
        <time>2016-10-28T15:22:56Z</time>
      </trkpt>
      <trkpt lat="42.50314" lon="1.55189">
        <ele>1284</ele>
        <time>2016-10-28T15:23:08Z</time>
      </trkpt>
      <trkpt lat="42.50322" lon="1.55187">
        <ele>1283</ele>
        <time>2016-10-28T15:23:17Z</time>
      </trkpt>
      <trkpt lat="42.50329" lon="1.55188">
        <ele>1281</ele>
        <time>2016-10-28T15:23:29Z</time>
      </trkpt>
      <trkpt lat="42.50337" lon="1.55187">
        <ele>1278</ele>
        <time>2016-10-28T15:23:42Z</time>
      </trkpt>
      <trkpt lat="42.50377" lon="1.55144">
        <ele>1275</ele>
        <time>2016-10-28T15:23:58Z</time>
      </trkpt>
      <trkpt lat="42.50389" lon="1.55141">
        <ele>1272</ele>
        <time>2016-10-28T15:24:14Z</time>
      </trkpt>
      <trkpt lat="42.50398" lon="1.55132">
        <ele>1271</ele>
        <time>2016-10-28T15:24:27Z</time>
      </trkpt>
      <trkpt lat="42.50407" lon="1.55123">
        <ele>1269</ele>
        <time>2016-10-28T15:24:37Z</time>
      </trkpt>
      <trkpt lat="42.50417" lon="1.55116">
        <ele>1268</ele>
        <time>2016-10-28T15:24:46Z</time>
      </trkpt>
      <trkpt lat="42.50422" lon="1.55107">
        <ele>1266</ele>
        <time>2016-10-28T15:24:57Z</time>
      </trkpt>
      <trkpt lat="42.50426" lon="1.55101">
        <ele>1265</ele>
        <time>2016-10-28T15:25:10Z</time>
      </trkpt>
    </trkseg>
  </trk>
</gpx>